TVS4103 LKPR-GVBA
Flight info
| Callsign | TVS4103 |
|---|---|
| Flight time | 6h 54m |
| Altitude | 35000 |
| Route | BALTU DCT DONAD DCT OKG L984 KULOK Z715 ANELA N869 NATOR DCT LUTIX DCT BENOT DCT NEMOS DCT NINTU DCT MEBAK DCT REPSI DCT LERGA DCT MINSO DCT NARAK DCT AGN DCT MAQAB DCT TIVLI N869 ZAR Z245 CJN N10 HIJ M30 OXACA N858 OSLEP N747 MINTA DCT BAROK UN873 SAMAR DCT YUSME DCT LIMAL N873 IPERA B623 DIMKI DIMKI1P |
| Aircraft | B38M/M-SDE1FGHILORVWXY/HB1 |
Departure
| Time | 2026-04-07 13:22 |
|---|---|
| Airport | Václav Havel Airport Prague (LKPR) |
Arrival
| Time | 2026-04-07 20:16 |
|---|---|
| Airport | Aristides Pereira International Airport (GVBA) |
| Time | Latitude | Longitude | Altitude | Speed | Heading |
|---|---|---|---|---|---|
| 2026-04-07 13:03 | 50.10787 | 14.26588 | 1179 ft | 0 kts | 34° |
| 2026-04-07 13:09 | 50.10775 | 14.26575 | 1176 ft | 4 kts | 34° |
| 2026-04-07 13:09 | 50.10752 | 14.26551 | 1177 ft | 4 kts | 34° |
| 2026-04-07 13:09 | 50.10730 | 14.26528 | 1176 ft | 4 kts | 34° |
| 2026-04-07 13:09 | 50.10711 | 14.26508 | 1174 ft | 1 kts | 34° |
| 2026-04-07 13:10 | 50.10707 | 14.26504 | 1174 ft | 0 kts | 34° |
| 2026-04-07 13:13 | 50.10708 | 14.26504 | 1174 ft | 0 kts | 31° |
| 2026-04-07 13:13 | 50.10714 | 14.26510 | 1174 ft | 2 kts | 29° |
| 2026-04-07 13:13 | 50.10719 | 14.26513 | 1174 ft | 0 kts | 29° |
| 2026-04-07 13:13 | 50.10722 | 14.26516 | 1177 ft | 2 kts | 23° |
| 2026-04-07 13:14 | 50.10749 | 14.26507 | 1177 ft | 5 kts | 327° |
| 2026-04-07 13:14 | 50.10772 | 14.26462 | 1178 ft | 6 kts | 303° |
| 2026-04-07 13:14 | 50.10796 | 14.26408 | 1178 ft | 6 kts | 304° |
| 2026-04-07 13:14 | 50.10823 | 14.26347 | 1177 ft | 7 kts | 304° |
| 2026-04-07 13:15 | 50.10845 | 14.26279 | 1176 ft | 7 kts | 283° |
| 2026-04-07 13:15 | 50.10825 | 14.26235 | 1177 ft | 5 kts | 192° |
| 2026-04-07 13:15 | 50.10786 | 14.26223 | 1179 ft | 7 kts | 194° |
| 2026-04-07 13:15 | 50.10736 | 14.26182 | 1177 ft | 10 kts | 214° |
| 2026-04-07 13:16 | 50.10664 | 14.26105 | 1179 ft | 15 kts | 214° |
| 2026-04-07 13:16 | 50.10567 | 14.26008 | 1178 ft | 16 kts | 212° |
| 2026-04-07 13:16 | 50.10485 | 14.26006 | 1187 ft | 12 kts | 128° |
| 2026-04-07 13:16 | 50.10437 | 14.26107 | 1189 ft | 12 kts | 127° |
| 2026-04-07 13:17 | 50.10388 | 14.26208 | 1191 ft | 12 kts | 126° |
| 2026-04-07 13:17 | 50.10337 | 14.26314 | 1193 ft | 13 kts | 127° |
| 2026-04-07 13:17 | 50.10283 | 14.26426 | 1195 ft | 13 kts | 127° |
| 2026-04-07 13:17 | 50.10226 | 14.26546 | 1198 ft | 15 kts | 127° |
| 2026-04-07 13:18 | 50.10160 | 14.26681 | 1199 ft | 17 kts | 127° |
| 2026-04-07 13:18 | 50.10087 | 14.26835 | 1203 ft | 19 kts | 127° |
| 2026-04-07 13:18 | 50.10005 | 14.27004 | 1206 ft | 20 kts | 127° |
| 2026-04-07 13:18 | 50.09918 | 14.27186 | 1208 ft | 23 kts | 127° |
| 2026-04-07 13:19 | 50.09805 | 14.27393 | 1208 ft | 27 kts | 136° |
| 2026-04-07 13:19 | 50.09666 | 14.27603 | 1209 ft | 29 kts | 136° |
| 2026-04-07 13:19 | 50.09517 | 14.27829 | 1215 ft | 31 kts | 135° |
| 2026-04-07 13:19 | 50.09371 | 14.28058 | 1222 ft | 27 kts | 135° |
| 2026-04-07 13:20 | 50.09246 | 14.28252 | 1229 ft | 22 kts | 135° |
| 2026-04-07 13:20 | 50.09127 | 14.28256 | 1238 ft | 16 kts | 211° |
| 2026-04-07 13:20 | 50.09059 | 14.28177 | 1239 ft | 5 kts | 231° |
| 2026-04-07 13:20 | 50.09064 | 14.28132 | 1236 ft | 0 kts | 308° |
| 2026-04-07 13:21 | 50.09064 | 14.28131 | 1236 ft | 1 kts | 308° |
| 2026-04-07 13:21 | 50.09172 | 14.27909 | 1234 ft | 62 kts | 306° |
| 2026-04-07 13:21 | 50.09575 | 14.27073 | 1217 ft | 129 kts | 307° |
| 2026-04-07 13:21 | 50.10234 | 14.25734 | 1283 ft | 176 kts | 308° |
| 2026-04-07 13:22 | 50.11010 | 14.24156 | 1945 ft | 188 kts | 308° |
| 2026-04-07 13:22 | 50.11809 | 14.22504 | 2791 ft | 197 kts | 308° |
| 2026-04-07 13:22 | 50.12648 | 14.20729 | 3359 ft | 212 kts | 308° |
| 2026-04-07 13:22 | 50.13520 | 14.18861 | 4117 ft | 212 kts | 307° |
| 2026-04-07 13:23 | 50.14397 | 14.17003 | 4986 ft | 216 kts | 309° |
| 2026-04-07 13:23 | 50.15316 | 14.15129 | 5679 ft | 224 kts | 309° |
| 2026-04-07 13:23 | 50.16251 | 14.13177 | 6539 ft | 224 kts | 309° |
| 2026-04-07 13:23 | 50.17170 | 14.11237 | 7451 ft | 221 kts | 309° |
| 2026-04-07 13:24 | 50.18086 | 14.09312 | 8202 ft | 225 kts | 310° |
| 2026-04-07 13:24 | 50.19064 | 14.07282 | 8729 ft | 238 kts | 310° |
| 2026-04-07 13:24 | 50.20060 | 14.05205 | 9532 ft | 243 kts | 310° |
| 2026-04-07 13:24 | 50.21110 | 14.03046 | 10122 ft | 255 kts | 310° |
| 2026-04-07 13:25 | 50.22137 | 14.00761 | 10752 ft | 265 kts | 300° |
| 2026-04-07 13:25 | 50.22615 | 13.97844 | 11058 ft | 296 kts | 276° |
| 2026-04-07 13:25 | 50.22198 | 13.94551 | 11446 ft | 324 kts | 256° |
| 2026-04-07 13:25 | 50.21450 | 13.91231 | 11881 ft | 335 kts | 258° |
| 2026-04-07 13:26 | 50.21066 | 13.89456 | 12242 ft | 336 kts | 258° |
| 2026-04-07 13:26 | 50.21029 | 13.89283 | 12286 ft | 336 kts | 258° |
| 2026-04-07 13:26 | 50.20286 | 13.85818 | 12971 ft | 340 kts | 258° |
| 2026-04-07 13:26 | 50.19536 | 13.82285 | 13635 ft | 344 kts | 258° |
| 2026-04-07 13:27 | 50.18784 | 13.78729 | 14293 ft | 348 kts | 258° |
| 2026-04-07 13:27 | 50.18022 | 13.75130 | 14892 ft | 351 kts | 258° |
| 2026-04-07 13:27 | 50.17254 | 13.71499 | 15495 ft | 354 kts | 258° |
| 2026-04-07 13:27 | 50.16489 | 13.67889 | 16068 ft | 357 kts | 258° |
| 2026-04-07 13:28 | 50.15705 | 13.64199 | 16653 ft | 360 kts | 258° |
| 2026-04-07 13:28 | 50.14913 | 13.60478 | 17215 ft | 363 kts | 258° |
| 2026-04-07 13:28 | 50.14113 | 13.56728 | 17782 ft | 366 kts | 258° |
| 2026-04-07 13:28 | 50.13305 | 13.52943 | 18332 ft | 369 kts | 258° |
| 2026-04-07 13:29 | 50.12489 | 13.49125 | 18838 ft | 372 kts | 258° |
| 2026-04-07 13:29 | 50.11653 | 13.45294 | 19310 ft | 376 kts | 256° |
| 2026-04-07 13:29 | 50.10736 | 13.41454 | 19782 ft | 379 kts | 256° |
| 2026-04-07 13:29 | 50.09814 | 13.37583 | 20222 ft | 382 kts | 256° |
| 2026-04-07 13:30 | 50.08900 | 13.33738 | 20657 ft | 385 kts | 256° |
| 2026-04-07 13:30 | 50.07966 | 13.29806 | 21136 ft | 388 kts | 256° |
| 2026-04-07 13:30 | 50.07027 | 13.25857 | 21576 ft | 391 kts | 256° |
| 2026-04-07 13:30 | 50.06080 | 13.21884 | 22019 ft | 393 kts | 256° |
| 2026-04-07 13:31 | 50.05125 | 13.17882 | 22464 ft | 396 kts | 256° |
| 2026-04-07 13:31 | 50.04162 | 13.13855 | 22905 ft | 399 kts | 256° |
| 2026-04-07 13:31 | 50.03190 | 13.09798 | 23326 ft | 402 kts | 255° |
| 2026-04-07 13:31 | 50.02209 | 13.05712 | 23761 ft | 404 kts | 255° |
| 2026-04-07 13:32 | 50.01234 | 13.01659 | 24107 ft | 407 kts | 255° |
| 2026-04-07 13:32 | 50.00225 | 12.97471 | 24486 ft | 408 kts | 255° |
| 2026-04-07 13:32 | 49.99240 | 12.93389 | 24806 ft | 411 kts | 255° |
| 2026-04-07 13:32 | 49.98233 | 12.89226 | 25162 ft | 412 kts | 255° |
| 2026-04-07 13:33 | 49.97219 | 12.85044 | 25509 ft | 414 kts | 255° |
| 2026-04-07 13:33 | 49.95173 | 12.76624 | 26147 ft | 419 kts | 255° |
| 2026-04-07 13:33 | 49.94140 | 12.72387 | 26463 ft | 421 kts | 255° |
| 2026-04-07 13:34 | 49.93101 | 12.68129 | 26765 ft | 423 kts | 255° |
| 2026-04-07 13:34 | 49.92068 | 12.63907 | 27088 ft | 425 kts | 254° |
| 2026-04-07 13:34 | 49.91017 | 12.59621 | 27417 ft | 426 kts | 254° |
| 2026-04-07 13:34 | 49.89959 | 12.55313 | 27727 ft | 428 kts | 254° |
| 2026-04-07 13:35 | 49.88896 | 12.50991 | 28046 ft | 430 kts | 254° |
| 2026-04-07 13:35 | 49.87829 | 12.46664 | 28352 ft | 431 kts | 254° |
| 2026-04-07 13:35 | 49.86752 | 12.42303 | 28658 ft | 433 kts | 254° |
| 2026-04-07 13:35 | 49.85671 | 12.37939 | 28968 ft | 435 kts | 254° |
| 2026-04-07 13:36 | 49.84583 | 12.33552 | 29271 ft | 437 kts | 254° |
| 2026-04-07 13:36 | 49.83492 | 12.29162 | 29510 ft | 439 kts | 254° |
| 2026-04-07 13:36 | 49.82390 | 12.24736 | 29762 ft | 441 kts | 254° |
| 2026-04-07 13:36 | 49.81298 | 12.20360 | 30059 ft | 442 kts | 254° |
| 2026-04-07 13:37 | 49.80187 | 12.15916 | 30316 ft | 444 kts | 254° |
| 2026-04-07 13:37 | 49.79066 | 12.11438 | 30546 ft | 446 kts | 254° |
| 2026-04-07 13:37 | 49.77942 | 12.06961 | 30744 ft | 448 kts | 253° |
| 2026-04-07 13:37 | 49.76812 | 12.02466 | 30934 ft | 450 kts | 253° |
| 2026-04-07 13:38 | 49.75673 | 11.97949 | 31169 ft | 451 kts | 253° |
| 2026-04-07 13:38 | 49.74532 | 11.93429 | 31405 ft | 452 kts | 253° |
| 2026-04-07 13:38 | 49.73388 | 11.88905 | 31700 ft | 451 kts | 253° |
| 2026-04-07 13:38 | 49.72241 | 11.84383 | 31991 ft | 451 kts | 253° |
| 2026-04-07 13:39 | 49.71114 | 11.79945 | 32289 ft | 450 kts | 253° |
| 2026-04-07 13:39 | 49.69968 | 11.75445 | 32522 ft | 450 kts | 253° |
| 2026-04-07 13:39 | 49.68821 | 11.70947 | 32790 ft | 450 kts | 253° |
| 2026-04-07 13:39 | 49.67674 | 11.66459 | 33056 ft | 450 kts | 253° |
| 2026-04-07 13:40 | 49.66523 | 11.61962 | 33327 ft | 449 kts | 253° |
| 2026-04-07 13:40 | 49.65374 | 11.57484 | 33604 ft | 449 kts | 253° |
| 2026-04-07 13:40 | 49.64223 | 11.53008 | 33862 ft | 448 kts | 253° |
| 2026-04-07 13:40 | 49.63091 | 11.48610 | 34114 ft | 448 kts | 253° |
| 2026-04-07 13:41 | 49.61938 | 11.44142 | 34348 ft | 448 kts | 253° |
| 2026-04-07 13:41 | 49.60784 | 11.39681 | 34522 ft | 448 kts | 252° |
| 2026-04-07 13:41 | 49.59630 | 11.35227 | 34758 ft | 447 kts | 252° |
| 2026-04-07 13:41 | 49.58471 | 11.30764 | 34977 ft | 446 kts | 252° |
| 2026-04-07 13:42 | 49.57325 | 11.26357 | 35171 ft | 445 kts | 252° |
| 2026-04-07 13:42 | 49.56171 | 11.21926 | 35297 ft | 446 kts | 252° |
| 2026-04-07 13:42 | 49.53851 | 11.13051 | 35290 ft | 453 kts | 252° |
| 2026-04-07 13:43 | 49.51483 | 11.04024 | 35293 ft | 458 kts | 252° |
| 2026-04-07 13:43 | 49.49077 | 10.94891 | 35296 ft | 462 kts | 252° |
| 2026-04-07 13:44 | 49.46649 | 10.85711 | 35300 ft | 465 kts | 252° |
| 2026-04-07 13:44 | 49.44199 | 10.76483 | 35304 ft | 468 kts | 251° |
| 2026-04-07 13:45 | 49.41636 | 10.67343 | 35302 ft | 473 kts | 241° |
| 2026-04-07 13:45 | 49.39582 | 10.63391 | 35335 ft | 478 kts | 229° |
| 2026-04-07 13:45 | 49.37320 | 10.59649 | 35299 ft | 479 kts | 231° |
| 2026-04-07 13:46 | 49.32697 | 10.52262 | 35321 ft | 481 kts | 228° |
| 2026-04-07 13:46 | 49.27978 | 10.44999 | 35326 ft | 482 kts | 228° |
| 2026-04-07 13:47 | 49.23249 | 10.37720 | 35323 ft | 482 kts | 228° |
| 2026-04-07 13:47 | 49.18564 | 10.30458 | 35315 ft | 483 kts | 228° |
| 2026-04-07 13:48 | 49.13909 | 10.23080 | 35295 ft | 481 kts | 234° |
| 2026-04-07 13:48 | 49.09712 | 10.15159 | 35296 ft | 480 kts | 233° |
| 2026-04-07 13:49 | 49.05520 | 10.07228 | 35290 ft | 480 kts | 233° |
| 2026-04-07 13:49 | 49.01357 | 9.99371 | 35294 ft | 480 kts | 233° |
| 2026-04-07 13:50 | 48.97155 | 9.91463 | 35285 ft | 480 kts | 233° |
| 2026-04-07 13:50 | 48.92953 | 9.83577 | 35287 ft | 480 kts | 233° |
| 2026-04-07 13:51 | 48.88745 | 9.75704 | 35271 ft | 480 kts | 233° |
| 2026-04-07 13:51 | 48.84556 | 9.67894 | 35269 ft | 480 kts | 233° |
| 2026-04-07 13:52 | 48.80337 | 9.60049 | 35261 ft | 479 kts | 232° |
| 2026-04-07 13:52 | 48.76117 | 9.52225 | 35251 ft | 479 kts | 232° |
| 2026-04-07 13:53 | 48.71892 | 9.44414 | 35248 ft | 479 kts | 232° |
| 2026-04-07 13:53 | 48.67661 | 9.36614 | 35265 ft | 479 kts | 232° |
| 2026-04-07 13:54 | 48.63459 | 9.28890 | 35265 ft | 479 kts | 232° |
| 2026-04-07 13:54 | 48.59533 | 9.20800 | 35275 ft | 477 kts | 237° |
| 2026-04-07 13:55 | 48.55700 | 9.12621 | 35261 ft | 477 kts | 236° |
| 2026-04-07 13:55 | 48.51837 | 9.04475 | 35254 ft | 477 kts | 236° |
| 2026-04-07 13:56 | 48.47996 | 8.96404 | 35256 ft | 477 kts | 236° |
| 2026-04-07 13:56 | 48.44119 | 8.88282 | 35251 ft | 477 kts | 236° |
| 2026-04-07 13:57 | 48.40243 | 8.80185 | 35251 ft | 477 kts | 236° |
| 2026-04-07 13:57 | 48.36356 | 8.72091 | 35254 ft | 477 kts | 236° |
| 2026-04-07 13:58 | 48.32487 | 8.64058 | 35248 ft | 477 kts | 235° |
| 2026-04-07 13:58 | 48.28594 | 8.55998 | 35253 ft | 477 kts | 235° |
| 2026-04-07 13:59 | 48.24694 | 8.47949 | 35252 ft | 476 kts | 235° |
| 2026-04-07 13:59 | 48.20793 | 8.39918 | 35253 ft | 476 kts | 235° |
| 2026-04-07 14:00 | 48.16671 | 8.32173 | 35235 ft | 478 kts | 221° |
| 2026-04-07 14:00 | 48.11180 | 8.26559 | 35230 ft | 479 kts | 214° |
| 2026-04-07 14:01 | 48.05638 | 8.21155 | 35255 ft | 479 kts | 214° |
| 2026-04-07 14:01 | 48.00032 | 8.15762 | 35252 ft | 480 kts | 214° |
| 2026-04-07 14:02 | 47.94415 | 8.10374 | 35257 ft | 480 kts | 214° |
| 2026-04-07 14:02 | 47.88795 | 8.04996 | 35258 ft | 480 kts | 213° |
| 2026-04-07 14:03 | 47.83205 | 7.99662 | 35251 ft | 481 kts | 214° |
| 2026-04-07 14:03 | 47.77572 | 7.94302 | 35247 ft | 481 kts | 213° |
| 2026-04-07 14:04 | 47.71924 | 7.88940 | 35247 ft | 481 kts | 213° |
| 2026-04-07 14:04 | 47.66392 | 7.83701 | 35265 ft | 461 kts | 213° |
| 2026-04-07 14:05 | 47.61047 | 7.78653 | 35233 ft | 453 kts | 213° |
| 2026-04-07 14:05 | 47.55715 | 7.73630 | 35240 ft | 455 kts | 213° |
| 2026-04-07 14:06 | 47.50386 | 7.68621 | 35237 ft | 454 kts | 212° |
| 2026-04-07 14:06 | 47.45054 | 7.63621 | 35227 ft | 453 kts | 212° |
| 2026-04-07 14:07 | 47.39756 | 7.58667 | 35237 ft | 454 kts | 212° |
| 2026-04-07 14:07 | 47.34424 | 7.53691 | 35230 ft | 454 kts | 212° |
| 2026-04-07 14:08 | 47.29083 | 7.48721 | 35209 ft | 453 kts | 212° |
| 2026-04-07 14:08 | 47.23748 | 7.43765 | 35215 ft | 453 kts | 212° |
| 2026-04-07 14:09 | 47.18459 | 7.38859 | 35211 ft | 453 kts | 213° |
| 2026-04-07 14:09 | 47.16042 | 7.35916 | 35185 ft | 451 kts | 229° |
| 2026-04-07 14:09 | 47.14068 | 7.32357 | 35235 ft | 451 kts | 230° |
| 2026-04-07 14:10 | 47.10088 | 7.25189 | 35209 ft | 453 kts | 231° |
| 2026-04-07 14:10 | 47.06151 | 7.17978 | 35213 ft | 453 kts | 231° |
| 2026-04-07 14:11 | 47.02240 | 7.10809 | 35238 ft | 453 kts | 231° |
| 2026-04-07 14:11 | 46.98299 | 7.03601 | 35236 ft | 453 kts | 231° |
| 2026-04-07 14:12 | 46.94354 | 6.96406 | 35232 ft | 454 kts | 231° |
| 2026-04-07 14:12 | 46.91067 | 6.90427 | 35235 ft | 452 kts | 230° |
| 2026-04-07 14:13 | 46.86480 | 6.82120 | 35240 ft | 452 kts | 230° |
| 2026-04-07 14:13 | 46.82526 | 6.74978 | 35236 ft | 452 kts | 230° |
| 2026-04-07 14:14 | 46.78569 | 6.67849 | 35235 ft | 452 kts | 230° |
| 2026-04-07 14:14 | 46.75274 | 6.61926 | 35226 ft | 453 kts | 230° |
| 2026-04-07 14:15 | 46.70652 | 6.53641 | 35218 ft | 453 kts | 230° |
| 2026-04-07 14:15 | 46.66675 | 6.46530 | 35221 ft | 453 kts | 230° |
| 2026-04-07 14:16 | 46.63365 | 6.40628 | 35220 ft | 452 kts | 230° |
| 2026-04-07 14:16 | 46.59390 | 6.33554 | 35217 ft | 452 kts | 230° |
| 2026-04-07 14:17 | 46.55404 | 6.26481 | 35215 ft | 452 kts | 230° |
| 2026-04-07 14:17 | 46.51414 | 6.19417 | 35215 ft | 452 kts | 230° |
| 2026-04-07 14:18 | 46.47450 | 6.12418 | 35207 ft | 452 kts | 230° |
| 2026-04-07 14:18 | 46.43452 | 6.05377 | 35208 ft | 452 kts | 230° |
| 2026-04-07 14:19 | 46.39451 | 5.98348 | 35211 ft | 452 kts | 229° |
| 2026-04-07 14:19 | 46.35445 | 5.91326 | 35211 ft | 452 kts | 229° |
| 2026-04-07 14:20 | 46.31463 | 5.84368 | 35208 ft | 452 kts | 229° |
| 2026-04-07 14:20 | 46.27446 | 5.77364 | 35207 ft | 452 kts | 229° |
| 2026-04-07 14:21 | 46.23423 | 5.70368 | 35207 ft | 452 kts | 229° |
| 2026-04-07 14:21 | 46.19401 | 5.63389 | 35206 ft | 453 kts | 229° |
| 2026-04-07 14:22 | 46.15372 | 5.56405 | 35189 ft | 453 kts | 230° |
| 2026-04-07 14:22 | 46.11834 | 5.48956 | 35195 ft | 454 kts | 234° |
| 2026-04-07 14:23 | 46.08255 | 5.41474 | 35201 ft | 453 kts | 234° |
| 2026-04-07 14:23 | 46.04655 | 5.34023 | 35191 ft | 454 kts | 234° |
| 2026-04-07 14:24 | 46.01044 | 5.26566 | 35195 ft | 454 kts | 233° |
| 2026-04-07 14:24 | 45.97448 | 5.19163 | 35197 ft | 454 kts | 233° |
| 2026-04-07 14:25 | 45.93829 | 5.11731 | 35206 ft | 454 kts | 233° |
| 2026-04-07 14:25 | 45.90218 | 5.04333 | 35198 ft | 451 kts | 233° |
| 2026-04-07 14:26 | 45.86605 | 4.96951 | 35183 ft | 452 kts | 233° |
| 2026-04-07 14:26 | 45.83003 | 4.89614 | 35186 ft | 454 kts | 233° |
| 2026-04-07 14:27 | 45.79368 | 4.82225 | 35180 ft | 454 kts | 232° |
| 2026-04-07 14:27 | 45.75730 | 4.74849 | 35182 ft | 453 kts | 232° |
| 2026-04-07 14:28 | 45.72087 | 4.67483 | 35179 ft | 452 kts | 233° |
| 2026-04-07 14:28 | 45.68494 | 4.60208 | 35178 ft | 450 kts | 233° |
| 2026-04-07 14:29 | 45.64872 | 4.52889 | 35178 ft | 451 kts | 233° |
| 2026-04-07 14:29 | 45.61246 | 4.45581 | 35178 ft | 451 kts | 233° |
| 2026-04-07 14:30 | 45.57612 | 4.38273 | 35182 ft | 451 kts | 233° |
| 2026-04-07 14:30 | 45.53997 | 4.31024 | 35185 ft | 451 kts | 233° |
| 2026-04-07 14:31 | 45.50351 | 4.23738 | 35189 ft | 450 kts | 232° |
| 2026-04-07 14:31 | 45.46740 | 4.16455 | 35188 ft | 451 kts | 233° |
| 2026-04-07 14:32 | 45.43122 | 4.09158 | 35178 ft | 451 kts | 232° |
| 2026-04-07 14:32 | 45.39525 | 4.01924 | 35169 ft | 451 kts | 232° |
| 2026-04-07 14:33 | 45.35903 | 3.94659 | 35167 ft | 451 kts | 232° |
| 2026-04-07 14:33 | 45.32273 | 3.87396 | 35192 ft | 450 kts | 232° |
| 2026-04-07 14:34 | 45.28638 | 3.80142 | 35208 ft | 450 kts | 232° |
| 2026-04-07 14:34 | 45.25030 | 3.72960 | 35159 ft | 450 kts | 232° |
| 2026-04-07 14:35 | 45.21393 | 3.65739 | 35167 ft | 450 kts | 232° |
| 2026-04-07 14:35 | 45.17752 | 3.58528 | 35164 ft | 450 kts | 232° |
| 2026-04-07 14:36 | 45.14106 | 3.51325 | 35173 ft | 450 kts | 232° |
| 2026-04-07 14:36 | 45.10458 | 3.44135 | 35168 ft | 450 kts | 232° |
| 2026-04-07 14:37 | 45.06821 | 3.36986 | 35164 ft | 450 kts | 232° |
| 2026-04-07 14:37 | 45.03156 | 3.29799 | 35173 ft | 450 kts | 232° |
| 2026-04-07 14:38 | 44.99487 | 3.22623 | 35175 ft | 450 kts | 232° |
| 2026-04-07 14:38 | 44.95838 | 3.15505 | 35175 ft | 450 kts | 232° |
| 2026-04-07 14:39 | 44.90316 | 3.04766 | 35196 ft | 451 kts | 231° |
| 2026-04-07 14:40 | 44.86632 | 2.97621 | 35180 ft | 449 kts | 231° |
| 2026-04-07 14:40 | 44.82950 | 2.90502 | 35185 ft | 450 kts | 231° |
| 2026-04-07 14:41 | 44.79287 | 2.83434 | 35184 ft | 449 kts | 231° |
| 2026-04-07 14:41 | 44.75601 | 2.76339 | 35183 ft | 449 kts | 231° |
| 2026-04-07 14:42 | 44.71907 | 2.69247 | 35178 ft | 449 kts | 231° |
| 2026-04-07 14:42 | 44.68212 | 2.62173 | 35180 ft | 449 kts | 231° |
| 2026-04-07 14:43 | 44.64517 | 2.55114 | 35186 ft | 448 kts | 231° |
| 2026-04-07 14:43 | 44.60843 | 2.48112 | 35181 ft | 448 kts | 230° |
| 2026-04-07 14:44 | 44.57140 | 2.41074 | 35178 ft | 449 kts | 231° |
| 2026-04-07 14:44 | 44.53424 | 2.34026 | 35179 ft | 450 kts | 231° |
| 2026-04-07 14:45 | 44.49726 | 2.27030 | 35181 ft | 449 kts | 231° |
| 2026-04-07 14:45 | 44.46020 | 2.20034 | 35171 ft | 446 kts | 231° |
| 2026-04-07 14:46 | 44.42313 | 2.13057 | 35159 ft | 447 kts | 231° |
| 2026-04-07 14:46 | 44.38606 | 2.06094 | 35157 ft | 447 kts | 232° |
| 2026-04-07 14:47 | 44.34914 | 1.99177 | 35151 ft | 447 kts | 232° |
| 2026-04-07 14:47 | 44.31190 | 1.92219 | 35132 ft | 447 kts | 232° |
| 2026-04-07 14:48 | 44.27472 | 1.85283 | 35131 ft | 444 kts | 232° |
| 2026-04-07 14:48 | 44.23764 | 1.78385 | 35127 ft | 445 kts | 231° |
| 2026-04-07 14:49 | 44.20055 | 1.71504 | 35121 ft | 444 kts | 232° |
| 2026-04-07 14:49 | 44.16359 | 1.64662 | 35115 ft | 444 kts | 232° |
| 2026-04-07 14:50 | 44.12636 | 1.57784 | 35116 ft | 445 kts | 232° |
| 2026-04-07 14:50 | 44.08910 | 1.50917 | 35113 ft | 444 kts | 232° |
| 2026-04-07 14:51 | 44.05194 | 1.44086 | 35106 ft | 443 kts | 232° |
| 2026-04-07 14:51 | 44.01495 | 1.37303 | 35110 ft | 443 kts | 232° |
| 2026-04-07 14:52 | 43.97774 | 1.30494 | 35109 ft | 442 kts | 232° |
| 2026-04-07 14:52 | 43.94053 | 1.23701 | 35108 ft | 442 kts | 232° |
| 2026-04-07 14:53 | 43.90325 | 1.16912 | 35106 ft | 442 kts | 232° |
| 2026-04-07 14:53 | 43.86624 | 1.10186 | 35114 ft | 441 kts | 232° |
| 2026-04-07 14:54 | 43.82904 | 1.03442 | 35101 ft | 441 kts | 232° |
| 2026-04-07 14:54 | 43.79176 | 0.96701 | 35104 ft | 440 kts | 232° |
| 2026-04-07 14:55 | 43.75449 | 0.89976 | 35103 ft | 441 kts | 232° |
| 2026-04-07 14:55 | 43.71720 | 0.83261 | 35097 ft | 441 kts | 231° |
| 2026-04-07 14:56 | 43.68008 | 0.76595 | 35093 ft | 440 kts | 232° |
| 2026-04-07 14:56 | 43.64277 | 0.69909 | 35093 ft | 438 kts | 231° |
| 2026-04-07 14:57 | 43.60556 | 0.63255 | 35098 ft | 438 kts | 231° |
| 2026-04-07 14:57 | 43.56841 | 0.56627 | 35080 ft | 437 kts | 231° |
| 2026-04-07 14:58 | 43.53140 | 0.50040 | 35088 ft | 437 kts | 232° |
| 2026-04-07 14:58 | 43.49415 | 0.43425 | 35090 ft | 438 kts | 231° |
| 2026-04-07 14:59 | 43.45684 | 0.36812 | 35084 ft | 437 kts | 232° |
| 2026-04-07 14:59 | 43.41952 | 0.30219 | 35078 ft | 437 kts | 231° |
| 2026-04-07 14:59 | 43.39830 | 0.27250 | 35083 ft | 435 kts | 220° |
| 2026-04-07 15:00 | 43.37570 | 0.24546 | 35073 ft | 437 kts | 221° |
| 2026-04-07 15:00 | 43.33016 | 0.19012 | 35091 ft | 437 kts | 221° |
| 2026-04-07 15:01 | 43.28454 | 0.13507 | 35086 ft | 437 kts | 221° |
| 2026-04-07 15:01 | 43.23885 | 0.08006 | 35096 ft | 437 kts | 221° |
| 2026-04-07 15:02 | 43.19351 | 0.02558 | 35093 ft | 435 kts | 221° |
| 2026-04-07 15:02 | 43.14806 | -0.02890 | 35104 ft | 434 kts | 220° |
| 2026-04-07 15:03 | 43.10265 | -0.08325 | 35104 ft | 433 kts | 220° |
| 2026-04-07 15:03 | 43.05723 | -0.13748 | 35111 ft | 434 kts | 220° |
| 2026-04-07 15:04 | 43.01206 | -0.19130 | 35119 ft | 434 kts | 220° |
| 2026-04-07 15:04 | 42.96656 | -0.24541 | 35124 ft | 433 kts | 220° |
| 2026-04-07 15:05 | 42.92110 | -0.29937 | 35137 ft | 433 kts | 220° |
| 2026-04-07 15:05 | 42.87555 | -0.35332 | 35115 ft | 433 kts | 220° |
| 2026-04-07 15:06 | 42.83031 | -0.40682 | 35129 ft | 433 kts | 220° |
| 2026-04-07 15:06 | 42.80669 | -0.43213 | 35117 ft | 432 kts | 209° |
| 2026-04-07 15:06 | 42.77943 | -0.44876 | 35149 ft | 429 kts | 200° |
| 2026-04-07 15:07 | 42.72376 | -0.47917 | 35115 ft | 431 kts | 201° |
| 2026-04-07 15:07 | 42.66778 | -0.50895 | 35128 ft | 432 kts | 201° |
| 2026-04-07 15:08 | 42.61178 | -0.53839 | 35129 ft | 432 kts | 201° |
| 2026-04-07 15:08 | 42.55625 | -0.56750 | 35133 ft | 430 kts | 201° |
| 2026-04-07 15:09 | 42.50045 | -0.59670 | 35139 ft | 430 kts | 201° |
| 2026-04-07 15:09 | 42.44469 | -0.62582 | 35124 ft | 430 kts | 200° |
| 2026-04-07 15:10 | 42.38892 | -0.65488 | 35122 ft | 429 kts | 200° |
| 2026-04-07 15:10 | 42.33366 | -0.68364 | 35123 ft | 428 kts | 200° |
| 2026-04-07 15:11 | 42.27818 | -0.71245 | 35117 ft | 428 kts | 200° |
| 2026-04-07 15:11 | 42.22259 | -0.74126 | 35122 ft | 427 kts | 200° |
| 2026-04-07 15:12 | 42.16703 | -0.77000 | 35126 ft | 427 kts | 200° |
| 2026-04-07 15:12 | 42.11225 | -0.79828 | 35106 ft | 423 kts | 200° |
| 2026-04-07 15:13 | 42.05722 | -0.82665 | 35109 ft | 424 kts | 200° |
| 2026-04-07 15:13 | 42.00214 | -0.85498 | 35105 ft | 424 kts | 200° |
| 2026-04-07 15:14 | 41.94708 | -0.88324 | 35107 ft | 423 kts | 200° |
| 2026-04-07 15:14 | 41.89251 | -0.91121 | 35111 ft | 423 kts | 200° |
| 2026-04-07 15:15 | 41.83749 | -0.93935 | 35098 ft | 423 kts | 200° |
| 2026-04-07 15:15 | 41.78253 | -0.96741 | 35102 ft | 423 kts | 200° |
| 2026-04-07 15:16 | 41.72760 | -0.99541 | 35101 ft | 421 kts | 200° |
| 2026-04-07 15:16 | 41.67324 | -1.02338 | 35098 ft | 421 kts | 205° |
| 2026-04-07 15:16 | 41.64861 | -1.04435 | 35088 ft | 421 kts | 220° |
| 2026-04-07 15:17 | 41.62664 | -1.07024 | 35098 ft | 423 kts | 219° |
| 2026-04-07 15:17 | 41.58246 | -1.12232 | 35104 ft | 423 kts | 220° |
| 2026-04-07 15:18 | 41.53864 | -1.17490 | 35113 ft | 422 kts | 220° |
| 2026-04-07 15:18 | 41.49543 | -1.22687 | 35102 ft | 420 kts | 220° |
| 2026-04-07 15:19 | 41.45197 | -1.27908 | 35093 ft | 421 kts | 220° |
| 2026-04-07 15:19 | 41.40844 | -1.33126 | 35091 ft | 421 kts | 220° |
| 2026-04-07 15:20 | 41.36488 | -1.38339 | 35095 ft | 421 kts | 220° |
| 2026-04-07 15:20 | 41.32155 | -1.43514 | 35073 ft | 421 kts | 220° |
| 2026-04-07 15:21 | 41.27791 | -1.48716 | 35087 ft | 422 kts | 220° |
| 2026-04-07 15:21 | 41.23423 | -1.53914 | 35098 ft | 422 kts | 220° |
| 2026-04-07 15:22 | 41.19038 | -1.59122 | 35084 ft | 423 kts | 220° |
| 2026-04-07 15:22 | 41.14649 | -1.64325 | 35076 ft | 423 kts | 220° |
| 2026-04-07 15:23 | 41.10285 | -1.69489 | 35083 ft | 423 kts | 220° |
| 2026-04-07 15:23 | 41.05895 | -1.74676 | 35084 ft | 422 kts | 220° |
| 2026-04-07 15:24 | 41.01508 | -1.79845 | 35084 ft | 423 kts | 220° |
| 2026-04-07 15:24 | 40.97110 | -1.85016 | 35087 ft | 423 kts | 220° |
| 2026-04-07 15:25 | 40.92741 | -1.90145 | 35086 ft | 423 kts | 220° |
| 2026-04-07 15:25 | 40.88347 | -1.95296 | 35092 ft | 422 kts | 220° |
| 2026-04-07 15:26 | 40.83959 | -2.00428 | 35092 ft | 422 kts | 220° |
| 2026-04-07 15:26 | 40.79558 | -2.05566 | 35090 ft | 422 kts | 220° |
| 2026-04-07 15:27 | 40.75191 | -2.10656 | 35094 ft | 422 kts | 220° |
| 2026-04-07 15:27 | 40.70793 | -2.15766 | 35094 ft | 422 kts | 220° |
| 2026-04-07 15:28 | 40.66388 | -2.20870 | 35093 ft | 422 kts | 220° |
| 2026-04-07 15:28 | 40.61976 | -2.25973 | 35090 ft | 422 kts | 220° |
| 2026-04-07 15:29 | 40.57571 | -2.31058 | 35096 ft | 421 kts | 219° |
| 2026-04-07 15:29 | 40.53212 | -2.36082 | 35083 ft | 419 kts | 220° |
| 2026-04-07 15:30 | 40.48823 | -2.41131 | 35092 ft | 419 kts | 219° |
| 2026-04-07 15:30 | 40.44438 | -2.46167 | 35082 ft | 419 kts | 219° |
| 2026-04-07 15:31 | 40.40053 | -2.51193 | 35086 ft | 419 kts | 219° |
| 2026-04-07 15:31 | 40.35892 | -2.56531 | 35094 ft | 420 kts | 229° |
| 2026-04-07 15:32 | 40.32169 | -2.62392 | 35084 ft | 421 kts | 228° |
| 2026-04-07 15:32 | 40.28424 | -2.68279 | 35103 ft | 421 kts | 227° |
| 2026-04-07 15:33 | 40.24681 | -2.74155 | 35077 ft | 419 kts | 227° |
| 2026-04-07 15:33 | 40.20940 | -2.80015 | 35087 ft | 419 kts | 227° |
| 2026-04-07 15:34 | 40.17237 | -2.85808 | 35088 ft | 417 kts | 227° |
| 2026-04-07 15:34 | 40.13511 | -2.91623 | 35075 ft | 417 kts | 227° |
| 2026-04-07 15:35 | 40.09778 | -2.97440 | 35071 ft | 417 kts | 227° |
| 2026-04-07 15:35 | 40.06045 | -3.03246 | 35089 ft | 418 kts | 227° |
| 2026-04-07 15:36 | 40.02307 | -3.09048 | 35089 ft | 417 kts | 227° |
| 2026-04-07 15:36 | 39.98610 | -3.14777 | 35076 ft | 416 kts | 226° |
| 2026-04-07 15:37 | 39.94888 | -3.20533 | 35072 ft | 414 kts | 226° |
| 2026-04-07 15:37 | 39.91172 | -3.26269 | 35075 ft | 415 kts | 226° |
| 2026-04-07 15:38 | 39.87449 | -3.32006 | 35080 ft | 415 kts | 226° |
| 2026-04-07 15:38 | 39.83749 | -3.37697 | 35073 ft | 414 kts | 226° |
| 2026-04-07 15:39 | 39.80029 | -3.43411 | 35098 ft | 414 kts | 226° |
| 2026-04-07 15:39 | 39.76130 | -3.48857 | 35094 ft | 409 kts | 222° |
| 2026-04-07 15:40 | 39.72121 | -3.54124 | 35071 ft | 409 kts | 222° |
| 2026-04-07 15:40 | 39.68162 | -3.59364 | 35076 ft | 409 kts | 222° |
| 2026-04-07 15:41 | 39.64179 | -3.64633 | 35076 ft | 409 kts | 222° |
| 2026-04-07 15:41 | 39.60190 | -3.69903 | 35082 ft | 409 kts | 222° |
| 2026-04-07 15:42 | 39.56195 | -3.75159 | 35086 ft | 409 kts | 222° |
| 2026-04-07 15:42 | 39.50212 | -3.82976 | 35118 ft | 409 kts | 221° |
| 2026-04-07 15:43 | 39.46212 | -3.88192 | 35075 ft | 408 kts | 221° |
| 2026-04-07 15:43 | 39.42201 | -3.93413 | 35081 ft | 409 kts | 221° |
| 2026-04-07 15:44 | 39.38194 | -3.98620 | 35097 ft | 409 kts | 221° |
| 2026-04-07 15:44 | 39.34203 | -4.03796 | 35089 ft | 409 kts | 221° |
| 2026-04-07 15:45 | 39.30185 | -4.09001 | 35079 ft | 409 kts | 221° |
| 2026-04-07 15:45 | 39.26167 | -4.14196 | 35097 ft | 409 kts | 221° |
| 2026-04-07 15:46 | 39.22176 | -4.19347 | 35083 ft | 408 kts | 221° |
| 2026-04-07 15:46 | 39.18160 | -4.24520 | 35091 ft | 408 kts | 221° |
| 2026-04-07 15:47 | 39.14144 | -4.29686 | 35084 ft | 408 kts | 221° |
| 2026-04-07 15:47 | 39.10121 | -4.34851 | 35086 ft | 408 kts | 221° |
| 2026-04-07 15:48 | 39.06102 | -4.40003 | 35090 ft | 408 kts | 221° |
| 2026-04-07 15:48 | 39.02103 | -4.45120 | 35091 ft | 407 kts | 221° |
| 2026-04-07 15:49 | 38.98098 | -4.50237 | 35085 ft | 405 kts | 221° |
| 2026-04-07 15:49 | 38.94093 | -4.55346 | 35093 ft | 406 kts | 221° |
| 2026-04-07 15:50 | 38.90088 | -4.60440 | 35091 ft | 404 kts | 221° |
| 2026-04-07 15:50 | 38.86128 | -4.65470 | 35090 ft | 404 kts | 221° |
| 2026-04-07 15:51 | 38.82135 | -4.70535 | 35088 ft | 404 kts | 221° |
| 2026-04-07 15:51 | 38.78143 | -4.75590 | 35118 ft | 404 kts | 221° |
| 2026-04-07 15:52 | 38.74133 | -4.80658 | 35070 ft | 404 kts | 221° |
| 2026-04-07 15:52 | 38.70126 | -4.85716 | 35082 ft | 405 kts | 221° |
| 2026-04-07 15:53 | 38.66139 | -4.90738 | 35087 ft | 405 kts | 221° |
| 2026-04-07 15:53 | 38.62127 | -4.95784 | 35115 ft | 405 kts | 221° |
| 2026-04-07 15:54 | 38.58090 | -5.00854 | 35086 ft | 407 kts | 221° |
| 2026-04-07 15:54 | 38.54048 | -5.05922 | 35062 ft | 407 kts | 221° |
| 2026-04-07 15:55 | 38.50120 | -5.11135 | 35070 ft | 410 kts | 229° |
| 2026-04-07 15:55 | 38.46623 | -5.16825 | 35079 ft | 411 kts | 228° |
| 2026-04-07 15:56 | 38.43099 | -5.22564 | 35069 ft | 411 kts | 228° |
| 2026-04-07 15:56 | 38.39577 | -5.28296 | 35072 ft | 411 kts | 228° |
| 2026-04-07 15:57 | 38.36054 | -5.34022 | 35121 ft | 410 kts | 227° |
| 2026-04-07 15:57 | 38.32567 | -5.39677 | 35064 ft | 407 kts | 227° |
| 2026-04-07 15:58 | 38.29065 | -5.45349 | 35066 ft | 408 kts | 227° |
| 2026-04-07 15:58 | 38.25561 | -5.51012 | 35058 ft | 407 kts | 227° |
| 2026-04-07 15:59 | 38.22051 | -5.56676 | 35062 ft | 407 kts | 227° |
| 2026-04-07 15:59 | 38.18564 | -5.62293 | 35058 ft | 407 kts | 227° |
| 2026-04-07 16:00 | 38.15053 | -5.67939 | 35058 ft | 407 kts | 227° |
| 2026-04-07 16:00 | 38.11540 | -5.73579 | 35089 ft | 406 kts | 227° |
| 2026-04-07 16:01 | 38.08041 | -5.79187 | 35049 ft | 405 kts | 227° |
| 2026-04-07 16:01 | 38.04564 | -5.84749 | 35035 ft | 405 kts | 227° |
| 2026-04-07 16:02 | 38.01069 | -5.90330 | 35051 ft | 403 kts | 228° |
| 2026-04-07 16:02 | 37.97578 | -5.95897 | 35045 ft | 403 kts | 227° |
| 2026-04-07 16:03 | 37.94058 | -6.01431 | 35046 ft | 403 kts | 227° |
| 2026-04-07 16:03 | 37.90503 | -6.06915 | 35052 ft | 403 kts | 227° |
| 2026-04-07 16:04 | 37.86968 | -6.12367 | 35053 ft | 404 kts | 226° |
| 2026-04-07 16:04 | 37.83395 | -6.17871 | 35042 ft | 405 kts | 226° |
| 2026-04-07 16:05 | 37.79818 | -6.23371 | 35047 ft | 405 kts | 226° |
| 2026-04-07 16:05 | 37.76242 | -6.28862 | 35033 ft | 404 kts | 226° |
| 2026-04-07 16:06 | 37.72696 | -6.34297 | 35051 ft | 403 kts | 226° |
| 2026-04-07 16:06 | 37.69124 | -6.39763 | 35047 ft | 404 kts | 226° |
| 2026-04-07 16:07 | 37.65549 | -6.45224 | 35057 ft | 403 kts | 226° |
| 2026-04-07 16:07 | 37.61970 | -6.50682 | 35063 ft | 404 kts | 226° |
| 2026-04-07 16:08 | 37.58407 | -6.56107 | 35050 ft | 404 kts | 226° |
| 2026-04-07 16:08 | 37.54820 | -6.61559 | 35049 ft | 404 kts | 226° |
| 2026-04-07 16:09 | 37.51230 | -6.67006 | 35037 ft | 403 kts | 226° |
| 2026-04-07 16:09 | 37.47648 | -6.72433 | 35042 ft | 403 kts | 226° |
| 2026-04-07 16:10 | 37.44072 | -6.77842 | 35039 ft | 403 kts | 226° |
| 2026-04-07 16:10 | 37.40511 | -6.83219 | 35042 ft | 403 kts | 226° |
| 2026-04-07 16:11 | 37.36924 | -6.88626 | 35050 ft | 402 kts | 226° |
| 2026-04-07 16:11 | 37.33337 | -6.94024 | 35043 ft | 403 kts | 226° |
| 2026-04-07 16:12 | 37.29745 | -6.99422 | 35042 ft | 402 kts | 226° |
| 2026-04-07 16:12 | 37.26177 | -7.04773 | 35024 ft | 402 kts | 226° |
| 2026-04-07 16:13 | 37.22592 | -7.10145 | 35038 ft | 401 kts | 227° |
| 2026-04-07 16:13 | 37.19013 | -7.15499 | 35040 ft | 401 kts | 226° |
| 2026-04-07 16:14 | 37.16258 | -7.21508 | 35041 ft | 412 kts | 250° |
| 2026-04-07 16:14 | 37.14813 | -7.28503 | 35013 ft | 414 kts | 250° |
| 2026-04-07 16:15 | 37.13431 | -7.35538 | 35031 ft | 416 kts | 250° |
| 2026-04-07 16:15 | 37.12561 | -7.38957 | 35028 ft | 406 kts | 238° |
| 2026-04-07 16:15 | 37.11238 | -7.42066 | 35037 ft | 406 kts | 238° |
| 2026-04-07 16:16 | 37.08638 | -7.48347 | 35057 ft | 407 kts | 237° |
| 2026-04-07 16:16 | 37.06010 | -7.54563 | 35045 ft | 406 kts | 237° |
| 2026-04-07 16:17 | 37.03357 | -7.60805 | 35109 ft | 406 kts | 237° |
| 2026-04-07 16:17 | 37.00695 | -7.67054 | 35067 ft | 407 kts | 237° |
| 2026-04-07 16:18 | 36.98030 | -7.73294 | 35047 ft | 407 kts | 238° |
| 2026-04-07 16:18 | 36.95393 | -7.79461 | 35068 ft | 403 kts | 238° |
| 2026-04-07 16:19 | 36.92745 | -7.85641 | 35071 ft | 403 kts | 238° |
| 2026-04-07 16:19 | 36.90094 | -7.91816 | 35073 ft | 403 kts | 238° |
| 2026-04-07 16:20 | 36.87436 | -7.97995 | 35059 ft | 404 kts | 238° |
| 2026-04-07 16:20 | 36.84796 | -8.04120 | 35064 ft | 403 kts | 238° |
| 2026-04-07 16:21 | 36.82134 | -8.10285 | 35066 ft | 403 kts | 237° |
| 2026-04-07 16:21 | 36.79469 | -8.16445 | 35061 ft | 403 kts | 237° |
| 2026-04-07 16:22 | 36.76802 | -8.22600 | 35061 ft | 403 kts | 237° |
| 2026-04-07 16:22 | 36.74148 | -8.28712 | 35061 ft | 403 kts | 237° |
| 2026-04-07 16:23 | 36.71475 | -8.34856 | 35091 ft | 403 kts | 238° |
| 2026-04-07 16:23 | 36.68797 | -8.41001 | 35048 ft | 403 kts | 238° |
| 2026-04-07 16:24 | 36.66127 | -8.47115 | 35054 ft | 401 kts | 238° |
| 2026-04-07 16:24 | 36.63474 | -8.53178 | 35057 ft | 401 kts | 238° |
| 2026-04-07 16:25 | 36.60801 | -8.59276 | 35054 ft | 401 kts | 238° |
| 2026-04-07 16:25 | 36.58126 | -8.65370 | 35061 ft | 401 kts | 238° |
| 2026-04-07 16:26 | 36.55446 | -8.71460 | 35059 ft | 401 kts | 238° |
| 2026-04-07 16:26 | 36.52778 | -8.77514 | 35056 ft | 402 kts | 239° |
| 2026-04-07 16:27 | 36.50084 | -8.83615 | 35059 ft | 402 kts | 239° |
| 2026-04-07 16:27 | 36.47388 | -8.89709 | 35060 ft | 402 kts | 239° |
| 2026-04-07 16:28 | 36.44690 | -8.95798 | 35056 ft | 402 kts | 239° |
| 2026-04-07 16:28 | 36.42008 | -9.01839 | 35056 ft | 402 kts | 238° |
| 2026-04-07 16:29 | 36.39304 | -9.07918 | 35045 ft | 401 kts | 239° |
| 2026-04-07 16:29 | 36.36610 | -9.13964 | 35063 ft | 401 kts | 239° |
| 2026-04-07 16:30 | 36.33925 | -9.19976 | 35060 ft | 401 kts | 239° |
| 2026-04-07 16:30 | 36.31222 | -9.26022 | 35059 ft | 401 kts | 239° |
| 2026-04-07 16:31 | 36.28515 | -9.32063 | 35061 ft | 401 kts | 239° |
| 2026-04-07 16:31 | 36.25803 | -9.38104 | 35062 ft | 401 kts | 239° |
| 2026-04-07 16:32 | 36.23088 | -9.44141 | 35062 ft | 401 kts | 239° |
| 2026-04-07 16:32 | 36.20383 | -9.50147 | 35068 ft | 404 kts | 240° |
| 2026-04-07 16:33 | 36.17636 | -9.56233 | 35068 ft | 405 kts | 240° |
| 2026-04-07 16:33 | 36.14886 | -9.62314 | 35064 ft | 405 kts | 240° |
| 2026-04-07 16:34 | 36.12153 | -9.68348 | 35059 ft | 405 kts | 240° |
| 2026-04-07 16:34 | 36.09396 | -9.74424 | 35048 ft | 403 kts | 240° |
| 2026-04-07 16:35 | 36.06662 | -9.80440 | 35061 ft | 401 kts | 240° |
| 2026-04-07 16:35 | 36.03926 | -9.86453 | 35080 ft | 403 kts | 241° |
| 2026-04-07 16:36 | 36.01188 | -9.92457 | 35070 ft | 404 kts | 241° |
| 2026-04-07 16:36 | 35.98431 | -9.98493 | 35064 ft | 404 kts | 241° |
| 2026-04-07 16:37 | 35.94877 | -10.03789 | 35088 ft | 406 kts | 220° |
| 2026-04-07 16:37 | 35.90400 | -10.08105 | 35045 ft | 408 kts | 221° |
| 2026-04-07 16:38 | 35.85902 | -10.12334 | 35072 ft | 410 kts | 220° |
| 2026-04-07 16:38 | 35.81353 | -10.16560 | 35025 ft | 409 kts | 220° |
| 2026-04-07 16:39 | 35.76842 | -10.20738 | 35105 ft | 404 kts | 221° |
| 2026-04-07 16:39 | 35.72308 | -10.24932 | 35079 ft | 410 kts | 221° |
| 2026-04-07 16:40 | 35.67777 | -10.29115 | 35075 ft | 410 kts | 221° |
| 2026-04-07 16:40 | 35.63217 | -10.33319 | 35076 ft | 410 kts | 221° |
| 2026-04-07 16:41 | 35.58653 | -10.37522 | 35080 ft | 410 kts | 221° |
| 2026-04-07 16:41 | 35.54095 | -10.41713 | 35080 ft | 410 kts | 221° |
| 2026-04-07 16:42 | 35.49553 | -10.45882 | 35085 ft | 409 kts | 221° |
| 2026-04-07 16:42 | 35.44995 | -10.50060 | 35086 ft | 409 kts | 221° |
| 2026-04-07 16:43 | 35.40464 | -10.54208 | 35088 ft | 410 kts | 221° |
| 2026-04-07 16:43 | 35.35977 | -10.58308 | 35098 ft | 409 kts | 221° |
| 2026-04-07 16:44 | 35.31418 | -10.62471 | 35098 ft | 411 kts | 221° |
| 2026-04-07 16:44 | 35.29226 | -10.64618 | 34869 ft | 406 kts | 226° |
| 2026-04-07 16:44 | 35.28392 | -10.65687 | 34580 ft | 401 kts | 237° |
| 2026-04-07 16:45 | 35.27028 | -10.67998 | 34603 ft | 382 kts | 236° |
| 2026-04-07 16:45 | 35.25158 | -10.70232 | 35078 ft | 385 kts | 220° |
| 2026-04-07 16:45 | 35.22883 | -10.71722 | 35105 ft | 397 kts | 211° |
| 2026-04-07 16:45 | 35.21955 | -10.72243 | 35124 ft | 395 kts | 214° |
| 2026-04-07 16:46 | 35.17330 | -10.75637 | 35090 ft | 398 kts | 220° |
| 2026-04-07 16:46 | 35.12777 | -10.79509 | 35096 ft | 405 kts | 221° |
| 2026-04-07 16:47 | 35.08197 | -10.83587 | 35095 ft | 408 kts | 222° |
| 2026-04-07 16:47 | 35.03639 | -10.87699 | 35099 ft | 408 kts | 222° |
| 2026-04-07 16:48 | 34.99086 | -10.91812 | 35076 ft | 406 kts | 223° |
| 2026-04-07 16:49 | 34.92318 | -10.97916 | 35103 ft | 407 kts | 223° |
| 2026-04-07 16:49 | 34.87763 | -11.02017 | 35106 ft | 407 kts | 223° |
| 2026-04-07 16:50 | 34.83205 | -11.06115 | 35109 ft | 407 kts | 223° |
| 2026-04-07 16:50 | 34.78645 | -11.10209 | 35107 ft | 407 kts | 223° |
| 2026-04-07 16:51 | 34.74118 | -11.14268 | 35109 ft | 407 kts | 223° |
| 2026-04-07 16:51 | 34.69568 | -11.18343 | 35107 ft | 405 kts | 224° |
| 2026-04-07 16:52 | 34.65031 | -11.22401 | 35109 ft | 405 kts | 224° |
| 2026-04-07 16:52 | 34.60504 | -11.26462 | 35113 ft | 405 kts | 224° |
| 2026-04-07 16:53 | 34.56007 | -11.30499 | 35113 ft | 405 kts | 224° |
| 2026-04-07 16:53 | 34.51454 | -11.34582 | 35114 ft | 410 kts | 224° |
| 2026-04-07 16:54 | 34.46855 | -11.38699 | 35115 ft | 411 kts | 224° |
| 2026-04-07 16:54 | 34.42268 | -11.42800 | 35114 ft | 408 kts | 225° |
| 2026-04-07 16:55 | 34.37731 | -11.46850 | 35123 ft | 408 kts | 225° |
| 2026-04-07 16:55 | 34.33162 | -11.50923 | 35124 ft | 408 kts | 225° |
| 2026-04-07 16:56 | 34.28597 | -11.54988 | 35127 ft | 408 kts | 225° |
| 2026-04-07 16:56 | 34.24028 | -11.59050 | 35126 ft | 407 kts | 225° |
| 2026-04-07 16:57 | 34.19464 | -11.63103 | 35127 ft | 407 kts | 225° |
| 2026-04-07 16:57 | 34.14924 | -11.67128 | 35097 ft | 408 kts | 225° |
| 2026-04-07 16:58 | 34.10326 | -11.71199 | 35128 ft | 410 kts | 225° |
| 2026-04-07 16:58 | 34.05731 | -11.75262 | 35142 ft | 409 kts | 225° |
| 2026-04-07 16:59 | 34.01135 | -11.79320 | 35140 ft | 409 kts | 225° |
| 2026-04-07 16:59 | 33.96570 | -11.83346 | 35139 ft | 409 kts | 225° |
| 2026-04-07 17:00 | 33.91970 | -11.87396 | 35138 ft | 409 kts | 225° |
| 2026-04-07 17:00 | 33.87369 | -11.91443 | 35118 ft | 410 kts | 226° |
| 2026-04-07 17:01 | 33.82762 | -11.95489 | 35144 ft | 410 kts | 226° |
| 2026-04-07 17:01 | 33.78178 | -11.99509 | 35143 ft | 410 kts | 226° |
| 2026-04-07 17:02 | 33.73571 | -12.03543 | 35143 ft | 410 kts | 226° |
| 2026-04-07 17:02 | 33.68941 | -12.07593 | 35143 ft | 414 kts | 226° |
| 2026-04-07 17:03 | 33.65059 | -12.10984 | 35148 ft | 415 kts | 226° |
| 2026-04-07 17:03 | 33.59639 | -12.15712 | 35114 ft | 414 kts | 227° |
| 2026-04-07 17:04 | 33.54971 | -12.19778 | 35155 ft | 415 kts | 227° |
| 2026-04-07 17:04 | 33.51090 | -12.23154 | 35156 ft | 414 kts | 227° |
| 2026-04-07 17:05 | 33.46421 | -12.27211 | 35155 ft | 415 kts | 227° |
| 2026-04-07 17:05 | 33.40993 | -12.31920 | 35158 ft | 415 kts | 227° |
| 2026-04-07 17:06 | 33.37077 | -12.35314 | 35167 ft | 415 kts | 227° |
| 2026-04-07 17:06 | 33.32437 | -12.39329 | 35107 ft | 414 kts | 227° |
| 2026-04-07 17:07 | 33.27770 | -12.43362 | 35152 ft | 415 kts | 227° |
| 2026-04-07 17:07 | 33.23079 | -12.47410 | 35169 ft | 416 kts | 227° |
| 2026-04-07 17:08 | 33.18399 | -12.51444 | 35174 ft | 415 kts | 227° |
| 2026-04-07 17:08 | 33.13745 | -12.55449 | 35176 ft | 415 kts | 227° |
| 2026-04-07 17:09 | 33.09058 | -12.59478 | 35178 ft | 415 kts | 227° |
| 2026-04-07 17:09 | 33.04368 | -12.63504 | 35175 ft | 415 kts | 227° |
| 2026-04-07 17:10 | 32.99676 | -12.67526 | 35173 ft | 416 kts | 227° |
| 2026-04-07 17:10 | 32.95011 | -12.71522 | 35176 ft | 416 kts | 227° |
| 2026-04-07 17:11 | 32.90313 | -12.75540 | 35178 ft | 416 kts | 227° |
| 2026-04-07 17:11 | 32.85613 | -12.79553 | 35179 ft | 417 kts | 227° |
| 2026-04-07 17:12 | 32.80882 | -12.83562 | 35186 ft | 417 kts | 227° |
| 2026-04-07 17:12 | 32.76262 | -12.87478 | 35184 ft | 417 kts | 227° |
| 2026-04-07 17:13 | 32.72954 | -12.90279 | 35206 ft | 417 kts | 227° |
| 2026-04-07 17:13 | 32.70570 | -12.92252 | 35146 ft | 417 kts | 227° |
| 2026-04-07 17:14 | 32.65889 | -12.96248 | 35213 ft | 418 kts | 227° |
| 2026-04-07 17:14 | 32.61160 | -13.00242 | 35188 ft | 417 kts | 226° |
| 2026-04-07 17:15 | 32.56462 | -13.04202 | 35189 ft | 417 kts | 226° |
| 2026-04-07 17:15 | 32.51725 | -13.08190 | 35198 ft | 417 kts | 226° |
| 2026-04-07 17:16 | 32.46987 | -13.12172 | 35198 ft | 418 kts | 226° |
| 2026-04-07 17:16 | 32.43369 | -13.15210 | 35177 ft | 420 kts | 226° |
| 2026-04-07 17:17 | 32.40547 | -13.17572 | 35222 ft | 423 kts | 226° |
| 2026-04-07 17:17 | 32.35747 | -13.21601 | 35198 ft | 422 kts | 226° |
| 2026-04-07 17:18 | 32.30951 | -13.25614 | 35201 ft | 422 kts | 226° |
| 2026-04-07 17:18 | 32.26158 | -13.29621 | 35203 ft | 422 kts | 226° |
| 2026-04-07 17:19 | 32.21440 | -13.33559 | 35202 ft | 422 kts | 226° |
| 2026-04-07 17:19 | 32.17263 | -13.37042 | 35154 ft | 422 kts | 225° |
| 2026-04-07 17:20 | 32.12783 | -13.40774 | 35226 ft | 426 kts | 225° |
| 2026-04-07 17:20 | 32.07936 | -13.44803 | 35206 ft | 426 kts | 225° |
| 2026-04-07 17:21 | 32.03123 | -13.48801 | 35205 ft | 426 kts | 225° |
| 2026-04-07 17:21 | 31.98268 | -13.52828 | 35209 ft | 428 kts | 225° |
| 2026-04-07 17:22 | 31.93392 | -13.56867 | 35206 ft | 428 kts | 225° |
| 2026-04-07 17:22 | 31.88521 | -13.60897 | 35211 ft | 428 kts | 225° |
| 2026-04-07 17:23 | 31.83672 | -13.64903 | 35218 ft | 430 kts | 224° |
| 2026-04-07 17:23 | 31.78782 | -13.68938 | 35198 ft | 429 kts | 224° |
| 2026-04-07 17:24 | 31.73886 | -13.72972 | 35203 ft | 430 kts | 224° |
| 2026-04-07 17:24 | 31.68991 | -13.77000 | 35201 ft | 430 kts | 224° |
| 2026-04-07 17:25 | 31.64124 | -13.81000 | 35220 ft | 430 kts | 224° |
| 2026-04-07 17:25 | 31.59231 | -13.85017 | 35211 ft | 430 kts | 224° |
| 2026-04-07 17:26 | 31.54318 | -13.89044 | 35219 ft | 432 kts | 223° |
| 2026-04-07 17:26 | 31.49389 | -13.93079 | 35220 ft | 432 kts | 223° |
| 2026-04-07 17:27 | 31.44459 | -13.97110 | 35223 ft | 432 kts | 223° |
| 2026-04-07 17:27 | 31.39562 | -14.01110 | 35225 ft | 432 kts | 223° |
| 2026-04-07 17:28 | 31.34630 | -14.05132 | 35225 ft | 432 kts | 223° |
| 2026-04-07 17:28 | 31.29699 | -14.09160 | 35222 ft | 432 kts | 224° |
| 2026-04-07 17:29 | 31.24774 | -14.13194 | 35220 ft | 433 kts | 223° |
| 2026-04-07 17:29 | 31.19842 | -14.17229 | 35224 ft | 433 kts | 223° |
| 2026-04-07 17:30 | 31.14949 | -14.21227 | 35223 ft | 433 kts | 223° |
| 2026-04-07 17:30 | 31.10003 | -14.25264 | 35227 ft | 434 kts | 223° |
| 2026-04-07 17:31 | 31.05052 | -14.29298 | 35226 ft | 434 kts | 223° |
| 2026-04-07 17:31 | 31.00131 | -14.33303 | 35225 ft | 434 kts | 222° |
| 2026-04-07 17:32 | 30.95753 | -14.36863 | 35226 ft | 434 kts | 222° |
| 2026-04-07 17:32 | 30.92843 | -14.39229 | 35230 ft | 435 kts | 222° |
| 2026-04-07 17:33 | 30.90237 | -14.41321 | 35215 ft | 437 kts | 219° |
| 2026-04-07 17:33 | 30.84764 | -14.44567 | 35209 ft | 443 kts | 214° |
| 2026-04-07 17:34 | 30.79289 | -14.47739 | 35230 ft | 443 kts | 213° |
| 2026-04-07 17:34 | 30.73780 | -14.50923 | 35237 ft | 442 kts | 213° |
| 2026-04-07 17:35 | 30.68272 | -14.54100 | 35204 ft | 442 kts | 213° |
| 2026-04-07 17:35 | 30.62760 | -14.57277 | 35233 ft | 442 kts | 213° |
| 2026-04-07 17:36 | 30.57283 | -14.60429 | 35233 ft | 443 kts | 213° |
| 2026-04-07 17:36 | 30.51763 | -14.63602 | 35229 ft | 443 kts | 213° |
| 2026-04-07 17:37 | 30.46241 | -14.66772 | 35235 ft | 443 kts | 213° |
| 2026-04-07 17:37 | 30.40721 | -14.69937 | 35229 ft | 443 kts | 213° |
| 2026-04-07 17:38 | 30.35193 | -14.73102 | 35225 ft | 444 kts | 212° |
| 2026-04-07 17:38 | 30.29692 | -14.76248 | 35225 ft | 444 kts | 212° |
| 2026-04-07 17:39 | 30.24158 | -14.79409 | 35229 ft | 444 kts | 212° |
| 2026-04-07 17:39 | 30.18622 | -14.82567 | 35228 ft | 444 kts | 212° |
| 2026-04-07 17:40 | 30.13086 | -14.85721 | 35231 ft | 444 kts | 212° |
| 2026-04-07 17:40 | 30.07587 | -14.88850 | 35216 ft | 444 kts | 212° |
| 2026-04-07 17:41 | 30.02047 | -14.91998 | 35223 ft | 444 kts | 212° |
| 2026-04-07 17:41 | 29.96505 | -14.95143 | 35215 ft | 444 kts | 211° |
| 2026-04-07 17:42 | 29.90955 | -14.98290 | 35228 ft | 445 kts | 211° |
| 2026-04-07 17:42 | 29.85404 | -15.01433 | 35226 ft | 445 kts | 211° |
| 2026-04-07 17:43 | 29.79891 | -15.04550 | 35229 ft | 445 kts | 211° |
| 2026-04-07 17:43 | 29.74334 | -15.07689 | 35222 ft | 444 kts | 211° |
| 2026-04-07 17:44 | 29.68784 | -15.10820 | 35224 ft | 444 kts | 211° |
| 2026-04-07 17:44 | 29.63229 | -15.13949 | 35224 ft | 445 kts | 211° |
| 2026-04-07 17:45 | 29.57713 | -15.17052 | 35221 ft | 444 kts | 211° |
| 2026-04-07 17:45 | 29.52160 | -15.20173 | 35223 ft | 445 kts | 211° |
| 2026-04-07 17:46 | 29.46600 | -15.23294 | 35227 ft | 445 kts | 211° |
| 2026-04-07 17:46 | 29.41043 | -15.26410 | 35224 ft | 444 kts | 211° |
| 2026-04-07 17:47 | 29.35484 | -15.29522 | 35219 ft | 444 kts | 211° |
| 2026-04-07 17:47 | 29.29981 | -15.32600 | 35222 ft | 444 kts | 211° |
| 2026-04-07 17:48 | 29.24406 | -15.35713 | 35219 ft | 444 kts | 211° |
| 2026-04-07 17:48 | 29.18851 | -15.38812 | 35206 ft | 444 kts | 211° |
| 2026-04-07 17:49 | 29.13298 | -15.41907 | 35220 ft | 444 kts | 211° |
| 2026-04-07 17:49 | 29.07777 | -15.44980 | 35227 ft | 444 kts | 211° |
| 2026-04-07 17:50 | 29.02223 | -15.48067 | 35227 ft | 444 kts | 211° |
| 2026-04-07 17:50 | 28.96673 | -15.51148 | 35221 ft | 444 kts | 211° |
| 2026-04-07 17:51 | 28.91119 | -15.54228 | 35208 ft | 444 kts | 210° |
| 2026-04-07 17:51 | 28.85602 | -15.57284 | 35218 ft | 444 kts | 210° |
| 2026-04-07 17:52 | 28.80051 | -15.60355 | 35220 ft | 444 kts | 210° |
| 2026-04-07 17:52 | 28.74498 | -15.63424 | 35219 ft | 443 kts | 210° |
| 2026-04-07 17:53 | 28.68947 | -15.66487 | 35217 ft | 443 kts | 210° |
| 2026-04-07 17:53 | 28.60659 | -15.71054 | 35204 ft | 443 kts | 210° |
| 2026-04-07 17:54 | 28.55106 | -15.74110 | 35213 ft | 443 kts | 210° |
| 2026-04-07 17:54 | 28.49558 | -15.77159 | 35214 ft | 443 kts | 210° |
| 2026-04-07 17:55 | 28.44009 | -15.80206 | 35221 ft | 443 kts | 210° |
| 2026-04-07 17:55 | 28.38493 | -15.83230 | 35219 ft | 443 kts | 210° |
| 2026-04-07 17:56 | 28.32944 | -15.86269 | 35220 ft | 443 kts | 210° |
| 2026-04-07 17:56 | 28.27391 | -15.89307 | 35213 ft | 443 kts | 210° |
| 2026-04-07 17:57 | 28.21846 | -15.92337 | 35213 ft | 442 kts | 210° |
| 2026-04-07 17:57 | 28.16340 | -15.95343 | 35213 ft | 442 kts | 210° |
| 2026-04-07 17:58 | 28.10795 | -15.98366 | 35215 ft | 442 kts | 210° |
| 2026-04-07 17:58 | 28.05247 | -16.01387 | 35205 ft | 443 kts | 210° |
| 2026-04-07 17:59 | 27.99693 | -16.04408 | 35194 ft | 443 kts | 210° |
| 2026-04-07 17:59 | 27.94149 | -16.07421 | 35198 ft | 442 kts | 210° |
| 2026-04-07 18:00 | 27.88651 | -16.10406 | 35201 ft | 441 kts | 210° |
| 2026-04-07 18:00 | 27.83119 | -16.13405 | 35203 ft | 441 kts | 210° |
| 2026-04-07 18:01 | 27.77584 | -16.16402 | 35196 ft | 441 kts | 210° |
| 2026-04-07 18:01 | 27.72049 | -16.19395 | 35194 ft | 441 kts | 210° |
| 2026-04-07 18:02 | 27.66550 | -16.22362 | 35185 ft | 440 kts | 210° |
| 2026-04-07 18:02 | 27.61022 | -16.25345 | 35190 ft | 440 kts | 210° |
| 2026-04-07 18:03 | 27.55500 | -16.28321 | 35191 ft | 440 kts | 210° |
| 2026-04-07 18:03 | 27.49974 | -16.31295 | 35189 ft | 440 kts | 210° |
| 2026-04-07 18:04 | 27.44485 | -16.34247 | 35183 ft | 440 kts | 210° |
| 2026-04-07 18:04 | 27.38951 | -16.37219 | 35193 ft | 441 kts | 210° |
| 2026-04-07 18:05 | 27.33423 | -16.40185 | 35185 ft | 440 kts | 210° |
| 2026-04-07 18:05 | 27.27896 | -16.43147 | 35184 ft | 440 kts | 210° |
| 2026-04-07 18:06 | 27.22408 | -16.46085 | 35196 ft | 440 kts | 210° |
| 2026-04-07 18:06 | 27.16882 | -16.49039 | 35197 ft | 440 kts | 210° |
| 2026-04-07 18:07 | 27.11353 | -16.51992 | 35184 ft | 440 kts | 210° |
| 2026-04-07 18:07 | 27.05826 | -16.54941 | 35181 ft | 440 kts | 210° |
| 2026-04-07 18:08 | 27.00305 | -16.57884 | 35186 ft | 439 kts | 209° |
| 2026-04-07 18:08 | 26.94820 | -16.60804 | 35187 ft | 439 kts | 209° |
| 2026-04-07 18:09 | 26.89298 | -16.63741 | 35191 ft | 439 kts | 209° |
| 2026-04-07 18:09 | 26.83773 | -16.66676 | 35192 ft | 439 kts | 209° |
| 2026-04-07 18:10 | 26.78251 | -16.69606 | 35191 ft | 439 kts | 209° |
| 2026-04-07 18:10 | 26.72759 | -16.72517 | 35188 ft | 440 kts | 209° |
| 2026-04-07 18:11 | 26.67233 | -16.75443 | 35184 ft | 440 kts | 209° |
| 2026-04-07 18:11 | 26.62151 | -16.78132 | 35188 ft | 439 kts | 209° |
| 2026-04-07 18:12 | 26.58918 | -16.79838 | 35199 ft | 439 kts | 209° |
| 2026-04-07 18:12 | 26.53338 | -16.82787 | 35183 ft | 439 kts | 209° |
| 2026-04-07 18:13 | 26.47805 | -16.85706 | 35183 ft | 440 kts | 209° |
| 2026-04-07 18:13 | 26.42278 | -16.88618 | 35177 ft | 440 kts | 209° |
| 2026-04-07 18:14 | 26.36738 | -16.91535 | 35184 ft | 440 kts | 209° |
| 2026-04-07 18:14 | 26.33750 | -16.93106 | 35186 ft | 440 kts | 209° |
| 2026-04-07 18:15 | 26.28320 | -16.95960 | 35181 ft | 439 kts | 209° |
| 2026-04-07 18:15 | 26.22791 | -16.98862 | 35182 ft | 439 kts | 209° |
| 2026-04-07 18:16 | 26.17300 | -17.01742 | 35178 ft | 439 kts | 209° |
| 2026-04-07 18:16 | 26.11770 | -17.04639 | 35169 ft | 439 kts | 209° |
| 2026-04-07 18:17 | 26.06228 | -17.07539 | 35184 ft | 441 kts | 209° |
| 2026-04-07 18:17 | 26.00680 | -17.10440 | 35179 ft | 441 kts | 209° |
| 2026-04-07 18:18 | 25.95175 | -17.13315 | 35179 ft | 441 kts | 209° |
| 2026-04-07 18:18 | 25.89622 | -17.16212 | 35177 ft | 440 kts | 209° |
| 2026-04-07 18:19 | 25.84074 | -17.19103 | 35178 ft | 440 kts | 209° |
| 2026-04-07 18:19 | 25.78522 | -17.21993 | 35177 ft | 441 kts | 209° |
| 2026-04-07 18:20 | 25.73021 | -17.24855 | 35175 ft | 441 kts | 209° |
| 2026-04-07 18:20 | 25.67440 | -17.27754 | 35175 ft | 441 kts | 209° |
| 2026-04-07 18:21 | 25.61881 | -17.30639 | 35175 ft | 441 kts | 209° |
| 2026-04-07 18:21 | 25.56320 | -17.33522 | 35178 ft | 441 kts | 209° |
| 2026-04-07 18:22 | 25.50761 | -17.36401 | 35163 ft | 441 kts | 209° |
| 2026-04-07 18:22 | 25.45233 | -17.39261 | 35176 ft | 442 kts | 209° |
| 2026-04-07 18:23 | 25.39657 | -17.42143 | 35168 ft | 442 kts | 209° |
| 2026-04-07 18:23 | 25.34077 | -17.45024 | 35170 ft | 443 kts | 209° |
| 2026-04-07 18:24 | 25.28498 | -17.47902 | 35173 ft | 443 kts | 209° |
| 2026-04-07 18:24 | 25.22957 | -17.50758 | 35171 ft | 443 kts | 209° |
| 2026-04-07 18:25 | 25.17364 | -17.53637 | 35153 ft | 443 kts | 209° |
| 2026-04-07 18:25 | 25.11786 | -17.56506 | 35161 ft | 443 kts | 209° |
| 2026-04-07 18:26 | 25.06242 | -17.59355 | 35162 ft | 443 kts | 209° |
| 2026-04-07 18:26 | 25.01687 | -17.61693 | 35167 ft | 442 kts | 209° |
| 2026-04-07 18:27 | 24.99443 | -17.62970 | 35121 ft | 439 kts | 216° |
| 2026-04-07 18:27 | 24.94432 | -17.66419 | 35201 ft | 440 kts | 216° |
| 2026-04-07 18:28 | 24.89247 | -17.69985 | 35158 ft | 438 kts | 216° |
| 2026-04-07 18:28 | 24.84111 | -17.73525 | 35156 ft | 439 kts | 216° |
| 2026-04-07 18:29 | 24.78931 | -17.77094 | 35158 ft | 440 kts | 216° |
| 2026-04-07 18:29 | 24.73746 | -17.80664 | 35163 ft | 440 kts | 216° |
| 2026-04-07 18:30 | 24.68594 | -17.84206 | 35160 ft | 440 kts | 216° |
| 2026-04-07 18:30 | 24.63403 | -17.87772 | 35162 ft | 440 kts | 216° |
| 2026-04-07 18:31 | 24.58211 | -17.91335 | 35162 ft | 440 kts | 216° |
| 2026-04-07 18:31 | 24.53021 | -17.94893 | 35151 ft | 440 kts | 216° |
| 2026-04-07 18:32 | 24.47853 | -17.98433 | 35155 ft | 441 kts | 216° |
| 2026-04-07 18:32 | 24.42650 | -18.01993 | 35161 ft | 441 kts | 216° |
| 2026-04-07 18:33 | 24.37451 | -18.05547 | 35161 ft | 441 kts | 216° |
| 2026-04-07 18:33 | 24.32247 | -18.09101 | 35152 ft | 441 kts | 216° |
| 2026-04-07 18:34 | 24.27029 | -18.12660 | 35152 ft | 442 kts | 216° |
| 2026-04-07 18:34 | 24.21846 | -18.16193 | 35159 ft | 442 kts | 216° |
| 2026-04-07 18:35 | 24.17360 | -18.19247 | 35156 ft | 443 kts | 215° |
| 2026-04-07 18:35 | 24.14002 | -18.21526 | 35151 ft | 443 kts | 216° |
| 2026-04-07 18:36 | 24.09689 | -18.24465 | 35152 ft | 443 kts | 215° |
| 2026-04-07 18:36 | 24.04487 | -18.27999 | 35154 ft | 443 kts | 215° |
| 2026-04-07 18:37 | 23.99245 | -18.31557 | 35152 ft | 443 kts | 215° |
| 2026-04-07 18:37 | 23.94008 | -18.35108 | 35154 ft | 443 kts | 215° |
| 2026-04-07 18:38 | 23.88765 | -18.38659 | 35153 ft | 443 kts | 215° |
| 2026-04-07 18:38 | 23.83553 | -18.42186 | 35151 ft | 445 kts | 215° |
| 2026-04-07 18:39 | 23.78284 | -18.45749 | 35143 ft | 445 kts | 215° |
| 2026-04-07 18:39 | 23.73016 | -18.49307 | 35151 ft | 446 kts | 215° |
| 2026-04-07 18:40 | 23.67749 | -18.52861 | 35151 ft | 445 kts | 215° |
| 2026-04-07 18:40 | 23.62510 | -18.56392 | 35151 ft | 445 kts | 215° |
| 2026-04-07 18:41 | 23.57238 | -18.59943 | 35155 ft | 445 kts | 215° |
| 2026-04-07 18:41 | 23.51963 | -18.63492 | 35153 ft | 445 kts | 215° |
| 2026-04-07 18:42 | 23.46705 | -18.67027 | 35153 ft | 445 kts | 215° |
| 2026-04-07 18:42 | 23.41471 | -18.70542 | 35154 ft | 445 kts | 215° |
| 2026-04-07 18:43 | 23.36196 | -18.74081 | 35151 ft | 445 kts | 215° |
| 2026-04-07 18:43 | 23.30928 | -18.77612 | 35151 ft | 445 kts | 215° |
| 2026-04-07 18:44 | 23.25654 | -18.81144 | 35150 ft | 445 kts | 215° |
| 2026-04-07 18:44 | 23.20416 | -18.84648 | 35140 ft | 445 kts | 215° |
| 2026-04-07 18:45 | 23.15135 | -18.88178 | 35151 ft | 446 kts | 215° |
| 2026-04-07 18:45 | 23.09851 | -18.91706 | 35151 ft | 446 kts | 214° |
| 2026-04-07 18:46 | 23.04565 | -18.95234 | 35152 ft | 446 kts | 215° |
| 2026-04-07 18:46 | 22.99318 | -18.98731 | 35154 ft | 446 kts | 215° |
| 2026-04-07 18:47 | 22.94024 | -19.02256 | 35150 ft | 446 kts | 215° |
| 2026-04-07 18:47 | 22.88739 | -19.05772 | 35140 ft | 446 kts | 214° |
| 2026-04-07 18:48 | 22.83460 | -19.09282 | 35153 ft | 445 kts | 215° |
| 2026-04-07 18:48 | 22.79162 | -19.12135 | 35152 ft | 445 kts | 215° |
| 2026-04-07 18:49 | 22.74850 | -19.14998 | 35149 ft | 445 kts | 214° |
| 2026-04-07 18:49 | 22.70747 | -19.17719 | 35144 ft | 446 kts | 214° |
| 2026-04-07 18:50 | 22.65480 | -19.21208 | 35153 ft | 446 kts | 215° |
| 2026-04-07 18:50 | 22.60231 | -19.24683 | 35148 ft | 446 kts | 214° |
| 2026-04-07 18:51 | 22.54940 | -19.28183 | 35134 ft | 446 kts | 214° |
| 2026-04-07 18:51 | 22.49679 | -19.31660 | 35143 ft | 441 kts | 214° |
| 2026-04-07 18:52 | 22.44430 | -19.35124 | 35149 ft | 442 kts | 214° |
| 2026-04-07 18:52 | 22.39218 | -19.38562 | 35140 ft | 442 kts | 214° |
| 2026-04-07 18:53 | 22.33968 | -19.42023 | 35144 ft | 442 kts | 214° |
| 2026-04-07 18:53 | 22.28722 | -19.45478 | 35145 ft | 442 kts | 214° |
| 2026-04-07 18:54 | 22.23473 | -19.48931 | 35146 ft | 443 kts | 214° |
| 2026-04-07 18:54 | 22.18271 | -19.52352 | 35146 ft | 437 kts | 214° |
| 2026-04-07 18:55 | 22.14044 | -19.55128 | 35137 ft | 434 kts | 214° |
| 2026-04-07 18:55 | 22.11581 | -19.56749 | 35147 ft | 434 kts | 215° |
| 2026-04-07 18:56 | 22.06831 | -19.59857 | 35143 ft | 435 kts | 214° |
| 2026-04-07 18:56 | 22.01665 | -19.63243 | 35140 ft | 435 kts | 214° |
| 2026-04-07 18:57 | 21.96532 | -19.66604 | 35141 ft | 435 kts | 214° |
| 2026-04-07 18:57 | 21.91367 | -19.69984 | 35140 ft | 435 kts | 214° |
| 2026-04-07 18:58 | 21.86196 | -19.73364 | 35141 ft | 432 kts | 215° |
| 2026-04-07 18:58 | 21.81136 | -19.76668 | 35139 ft | 428 kts | 215° |
| 2026-04-07 18:59 | 21.77145 | -19.79272 | 35141 ft | 428 kts | 215° |
| 2026-04-07 18:59 | 21.72487 | -19.82310 | 35143 ft | 429 kts | 215° |
| 2026-04-07 19:00 | 21.67384 | -19.85636 | 35142 ft | 429 kts | 215° |
| 2026-04-07 19:00 | 21.62286 | -19.88955 | 35143 ft | 428 kts | 215° |
| 2026-04-07 19:01 | 21.57226 | -19.92247 | 35139 ft | 428 kts | 215° |
| 2026-04-07 19:02 | 21.49609 | -19.97197 | 35136 ft | 424 kts | 216° |
| 2026-04-07 19:02 | 21.44567 | -20.00470 | 35143 ft | 423 kts | 216° |
| 2026-04-07 19:03 | 21.39559 | -20.03719 | 35136 ft | 423 kts | 216° |
| 2026-04-07 19:03 | 21.34514 | -20.06988 | 35143 ft | 424 kts | 216° |
| 2026-04-07 19:04 | 21.29469 | -20.10256 | 35135 ft | 424 kts | 216° |
| 2026-04-07 19:04 | 21.24427 | -20.13518 | 35132 ft | 423 kts | 216° |
| 2026-04-07 19:05 | 21.19384 | -20.16780 | 35124 ft | 423 kts | 216° |
| 2026-04-07 19:05 | 21.14408 | -20.19994 | 35128 ft | 419 kts | 216° |
| 2026-04-07 19:06 | 21.09412 | -20.23219 | 35134 ft | 419 kts | 216° |
| 2026-04-07 19:06 | 21.04414 | -20.26443 | 35131 ft | 419 kts | 216° |
| 2026-04-07 19:07 | 20.99419 | -20.29662 | 35133 ft | 419 kts | 216° |
| 2026-04-07 19:07 | 20.95264 | -20.32338 | 35134 ft | 419 kts | 216° |
| 2026-04-07 19:08 | 20.93397 | -20.33541 | 35131 ft | 419 kts | 216° |
| 2026-04-07 19:08 | 20.89936 | -20.35767 | 35120 ft | 419 kts | 216° |
| 2026-04-07 19:09 | 20.88996 | -20.36372 | 35129 ft | 419 kts | 216° |
| 2026-04-07 19:09 | 20.85347 | -20.38719 | 35133 ft | 419 kts | 217° |
| 2026-04-07 19:10 | 20.80335 | -20.41940 | 35127 ft | 412 kts | 217° |
| 2026-04-07 19:10 | 20.75412 | -20.45100 | 35129 ft | 412 kts | 217° |
| 2026-04-07 19:11 | 20.70496 | -20.48255 | 35126 ft | 412 kts | 217° |
| 2026-04-07 19:11 | 20.65603 | -20.51391 | 35128 ft | 413 kts | 217° |
| 2026-04-07 19:12 | 20.60679 | -20.54546 | 35127 ft | 413 kts | 217° |
| 2026-04-07 19:12 | 20.55756 | -20.57697 | 35129 ft | 413 kts | 217° |
| 2026-04-07 19:13 | 20.50828 | -20.60850 | 35113 ft | 412 kts | 218° |
| 2026-04-07 19:13 | 20.45974 | -20.63952 | 35121 ft | 409 kts | 218° |
| 2026-04-07 19:14 | 20.41098 | -20.67067 | 35127 ft | 409 kts | 218° |
| 2026-04-07 19:14 | 20.36215 | -20.70181 | 35125 ft | 409 kts | 217° |
| 2026-04-07 19:15 | 20.31334 | -20.73285 | 35131 ft | 409 kts | 217° |
| 2026-04-07 19:15 | 20.26453 | -20.76389 | 35130 ft | 409 kts | 217° |
| 2026-04-07 19:16 | 20.21600 | -20.79472 | 35131 ft | 409 kts | 217° |
| 2026-04-07 19:16 | 20.16715 | -20.82574 | 35126 ft | 409 kts | 217° |
| 2026-04-07 19:17 | 20.11823 | -20.85677 | 35121 ft | 409 kts | 217° |
| 2026-04-07 19:17 | 20.06931 | -20.88778 | 35122 ft | 409 kts | 217° |
| 2026-04-07 19:18 | 20.02067 | -20.91859 | 35129 ft | 409 kts | 217° |
| 2026-04-07 19:18 | 19.97173 | -20.94957 | 35129 ft | 410 kts | 217° |
| 2026-04-07 19:19 | 19.92277 | -20.98054 | 35124 ft | 410 kts | 217° |
| 2026-04-07 19:19 | 19.87379 | -21.01150 | 35124 ft | 409 kts | 217° |
| 2026-04-07 19:20 | 19.82490 | -21.04238 | 35109 ft | 408 kts | 218° |
| 2026-04-07 19:20 | 19.77663 | -21.07285 | 35122 ft | 406 kts | 218° |
| 2026-04-07 19:21 | 19.72805 | -21.10349 | 35124 ft | 406 kts | 218° |
| 2026-04-07 19:21 | 19.69944 | -21.12152 | 35123 ft | 406 kts | 218° |
| 2026-04-07 19:22 | 19.68056 | -21.13340 | 35130 ft | 406 kts | 218° |
| 2026-04-07 19:22 | 19.63365 | -21.16297 | 35123 ft | 407 kts | 218° |
| 2026-04-07 19:23 | 19.58484 | -21.19369 | 35124 ft | 407 kts | 218° |
| 2026-04-07 19:23 | 19.53615 | -21.22431 | 35115 ft | 407 kts | 218° |
| 2026-04-07 19:24 | 19.48742 | -21.25494 | 35100 ft | 406 kts | 218° |
| 2026-04-07 19:24 | 19.43892 | -21.28540 | 35118 ft | 405 kts | 218° |
| 2026-04-07 19:25 | 19.39079 | -21.31561 | 35117 ft | 405 kts | 218° |
| 2026-04-07 19:25 | 19.36834 | -21.32969 | 35119 ft | 405 kts | 218° |
| 2026-04-07 19:26 | 19.35546 | -21.33778 | 35131 ft | 404 kts | 218° |
| 2026-04-07 19:26 | 19.30132 | -21.37171 | 35120 ft | 405 kts | 218° |
| 2026-04-07 19:27 | 19.25314 | -21.40189 | 35118 ft | 405 kts | 218° |
| 2026-04-07 19:27 | 19.20467 | -21.43223 | 35119 ft | 405 kts | 218° |
| 2026-04-07 19:28 | 19.15615 | -21.46257 | 35086 ft | 405 kts | 218° |
| 2026-04-07 19:28 | 19.10783 | -21.49278 | 35112 ft | 404 kts | 218° |
| 2026-04-07 19:29 | 19.05942 | -21.52302 | 35116 ft | 404 kts | 218° |
| 2026-04-07 19:29 | 19.01137 | -21.55302 | 35112 ft | 403 kts | 218° |
| 2026-04-07 19:30 | 18.96305 | -21.58315 | 35111 ft | 403 kts | 218° |
| 2026-04-07 19:30 | 18.91480 | -21.61323 | 35112 ft | 403 kts | 218° |
| 2026-04-07 19:31 | 18.86643 | -21.64337 | 35110 ft | 403 kts | 218° |
| 2026-04-07 19:31 | 18.81847 | -21.67322 | 35110 ft | 403 kts | 218° |
| 2026-04-07 19:32 | 18.77051 | -21.70305 | 34985 ft | 391 kts | 218° |
| 2026-04-07 19:32 | 18.74732 | -21.71747 | 34759 ft | 381 kts | 218° |
| 2026-04-07 19:32 | 18.72474 | -21.73151 | 34553 ft | 375 kts | 218° |
| 2026-04-07 19:32 | 18.70227 | -21.74547 | 34345 ft | 373 kts | 218° |
| 2026-04-07 19:33 | 18.68000 | -21.75931 | 34143 ft | 372 kts | 218° |
| 2026-04-07 19:33 | 18.65774 | -21.77314 | 33912 ft | 370 kts | 218° |
| 2026-04-07 19:33 | 18.63586 | -21.78672 | 33680 ft | 370 kts | 218° |
| 2026-04-07 19:33 | 18.61373 | -21.80045 | 33447 ft | 369 kts | 218° |
| 2026-04-07 19:34 | 18.59165 | -21.81415 | 33205 ft | 369 kts | 218° |
| 2026-04-07 19:34 | 18.56953 | -21.82787 | 32983 ft | 368 kts | 218° |
| 2026-04-07 19:34 | 18.54745 | -21.84156 | 32753 ft | 368 kts | 218° |
| 2026-04-07 19:34 | 18.52822 | -21.85347 | 32546 ft | 368 kts | 214° |
| 2026-04-07 19:35 | 18.51639 | -21.86067 | 32356 ft | 368 kts | 215° |
| 2026-04-07 19:35 | 18.49424 | -21.87423 | 31997 ft | 365 kts | 216° |
| 2026-04-07 19:35 | 18.47237 | -21.88779 | 31767 ft | 365 kts | 216° |
| 2026-04-07 19:35 | 18.45366 | -21.89939 | 31563 ft | 363 kts | 216° |
| 2026-04-07 19:36 | 18.43316 | -21.91200 | 31356 ft | 362 kts | 216° |
| 2026-04-07 19:36 | 18.41369 | -21.92397 | 31183 ft | 360 kts | 218° |
| 2026-04-07 19:36 | 18.39168 | -21.93787 | 31229 ft | 359 kts | 218° |
| 2026-04-07 19:36 | 18.36989 | -21.95147 | 31061 ft | 361 kts | 218° |
| 2026-04-07 19:37 | 18.34816 | -21.96494 | 30839 ft | 359 kts | 218° |
| 2026-04-07 19:37 | 18.32675 | -21.97818 | 30624 ft | 358 kts | 218° |
| 2026-04-07 19:37 | 18.30523 | -21.99149 | 30412 ft | 358 kts | 218° |
| 2026-04-07 19:37 | 18.28408 | -22.00456 | 30206 ft | 357 kts | 217° |
| 2026-04-07 19:38 | 18.26270 | -22.01777 | 29960 ft | 356 kts | 217° |
| 2026-04-07 19:38 | 18.24134 | -22.03096 | 29711 ft | 356 kts | 217° |
| 2026-04-07 19:38 | 18.22003 | -22.04411 | 29467 ft | 355 kts | 217° |
| 2026-04-07 19:38 | 18.19870 | -22.05727 | 29223 ft | 354 kts | 217° |
| 2026-04-07 19:39 | 18.17743 | -22.07040 | 28975 ft | 354 kts | 217° |
| 2026-04-07 19:39 | 18.16344 | -22.07902 | 28819 ft | 353 kts | 217° |
| 2026-04-07 19:39 | 18.14227 | -22.09208 | 28579 ft | 352 kts | 217° |
| 2026-04-07 19:39 | 18.11427 | -22.10935 | 28249 ft | 350 kts | 217° |
| 2026-04-07 19:40 | 18.09332 | -22.12225 | 28009 ft | 348 kts | 217° |
| 2026-04-07 19:40 | 18.07243 | -22.13513 | 27776 ft | 347 kts | 217° |
| 2026-04-07 19:40 | 18.05160 | -22.14796 | 27550 ft | 347 kts | 217° |
| 2026-04-07 19:40 | 18.03081 | -22.16077 | 27315 ft | 346 kts | 217° |
| 2026-04-07 19:41 | 18.01706 | -22.16923 | 27164 ft | 346 kts | 217° |
| 2026-04-07 19:41 | 17.99636 | -22.18197 | 26935 ft | 346 kts | 217° |
| 2026-04-07 19:41 | 17.97564 | -22.19473 | 26711 ft | 345 kts | 217° |
| 2026-04-07 19:41 | 17.94817 | -22.21163 | 26414 ft | 344 kts | 216° |
| 2026-04-07 19:42 | 17.93422 | -22.22020 | 26265 ft | 344 kts | 216° |
| 2026-04-07 19:42 | 17.90686 | -22.23703 | 25971 ft | 344 kts | 216° |
| 2026-04-07 19:42 | 17.89259 | -22.24499 | 25815 ft | 348 kts | 207° |
| 2026-04-07 19:42 | 17.86914 | -22.25116 | 25581 ft | 356 kts | 196° |
| 2026-04-07 19:43 | 17.84489 | -22.25599 | 25366 ft | 355 kts | 197° |
| 2026-04-07 19:43 | 17.82062 | -22.26089 | 25142 ft | 355 kts | 197° |
| 2026-04-07 19:43 | 17.79635 | -22.26566 | 24917 ft | 355 kts | 197° |
| 2026-04-07 19:43 | 17.77210 | -22.27035 | 24680 ft | 353 kts | 197° |
| 2026-04-07 19:44 | 17.74019 | -22.27647 | 24387 ft | 352 kts | 197° |
| 2026-04-07 19:44 | 17.71611 | -22.28108 | 24168 ft | 351 kts | 197° |
| 2026-04-07 19:44 | 17.69989 | -22.28417 | 24024 ft | 351 kts | 197° |
| 2026-04-07 19:44 | 17.67620 | -22.28870 | 23812 ft | 350 kts | 196° |
| 2026-04-07 19:45 | 17.65225 | -22.29327 | 23580 ft | 350 kts | 196° |
| 2026-04-07 19:45 | 17.62836 | -22.29783 | 23317 ft | 349 kts | 196° |
| 2026-04-07 19:45 | 17.60450 | -22.30238 | 23064 ft | 348 kts | 196° |
| 2026-04-07 19:45 | 17.58076 | -22.30691 | 22809 ft | 346 kts | 196° |
| 2026-04-07 19:46 | 17.55713 | -22.31141 | 22551 ft | 345 kts | 196° |
| 2026-04-07 19:46 | 17.53359 | -22.31590 | 22308 ft | 343 kts | 196° |
| 2026-04-07 19:46 | 17.51014 | -22.32037 | 22056 ft | 342 kts | 196° |
| 2026-04-07 19:46 | 17.48713 | -22.32475 | 21813 ft | 340 kts | 196° |
| 2026-04-07 19:47 | 17.46387 | -22.32918 | 21557 ft | 339 kts | 196° |
| 2026-04-07 19:47 | 17.44076 | -22.33358 | 21323 ft | 337 kts | 196° |
| 2026-04-07 19:47 | 17.41777 | -22.33796 | 21076 ft | 334 kts | 196° |
| 2026-04-07 19:47 | 17.39497 | -22.34230 | 20838 ft | 333 kts | 196° |
| 2026-04-07 19:48 | 17.37222 | -22.34662 | 20601 ft | 332 kts | 196° |
| 2026-04-07 19:48 | 17.34954 | -22.35094 | 20366 ft | 331 kts | 196° |
| 2026-04-07 19:48 | 17.32721 | -22.35518 | 20137 ft | 330 kts | 196° |
| 2026-04-07 19:48 | 17.30474 | -22.35946 | 19891 ft | 329 kts | 196° |
| 2026-04-07 19:49 | 17.28217 | -22.36375 | 19529 ft | 330 kts | 195° |
| 2026-04-07 19:49 | 17.25959 | -22.36804 | 19168 ft | 330 kts | 195° |
| 2026-04-07 19:49 | 17.23704 | -22.37232 | 18818 ft | 329 kts | 195° |
| 2026-04-07 19:49 | 17.21454 | -22.37659 | 18482 ft | 329 kts | 195° |
| 2026-04-07 19:50 | 17.19203 | -22.38087 | 18107 ft | 328 kts | 195° |
| 2026-04-07 19:50 | 17.16958 | -22.38513 | 17741 ft | 327 kts | 195° |
| 2026-04-07 19:50 | 17.14727 | -22.38936 | 17399 ft | 325 kts | 195° |
| 2026-04-07 19:50 | 17.12536 | -22.39352 | 17063 ft | 324 kts | 195° |
| 2026-04-07 19:51 | 17.10323 | -22.39772 | 16723 ft | 322 kts | 195° |
| 2026-04-07 19:51 | 17.08125 | -22.40189 | 16395 ft | 320 kts | 195° |
| 2026-04-07 19:51 | 17.05938 | -22.40604 | 16067 ft | 319 kts | 195° |
| 2026-04-07 19:51 | 17.03758 | -22.41016 | 15739 ft | 318 kts | 195° |
| 2026-04-07 19:52 | 17.01585 | -22.41428 | 15409 ft | 316 kts | 194° |
| 2026-04-07 19:52 | 16.99424 | -22.41838 | 15084 ft | 315 kts | 194° |
| 2026-04-07 19:52 | 16.97297 | -22.42241 | 14762 ft | 313 kts | 194° |
| 2026-04-07 19:52 | 16.95158 | -22.42647 | 14438 ft | 312 kts | 194° |
| 2026-04-07 19:53 | 16.93029 | -22.43049 | 14113 ft | 310 kts | 194° |
| 2026-04-07 19:53 | 16.90907 | -22.43450 | 13782 ft | 309 kts | 195° |
| 2026-04-07 19:53 | 16.88793 | -22.43851 | 13425 ft | 308 kts | 195° |
| 2026-04-07 19:53 | 16.86696 | -22.44248 | 13083 ft | 306 kts | 195° |
| 2026-04-07 19:54 | 16.84611 | -22.44643 | 12786 ft | 303 kts | 193° |
| 2026-04-07 19:54 | 16.82538 | -22.45033 | 12456 ft | 302 kts | 194° |
| 2026-04-07 19:54 | 16.80472 | -22.45425 | 12124 ft | 301 kts | 193° |
| 2026-04-07 19:54 | 16.78451 | -22.45806 | 11824 ft | 299 kts | 193° |
| 2026-04-07 19:55 | 16.76409 | -22.46194 | 11512 ft | 297 kts | 192° |
| 2026-04-07 19:55 | 16.74378 | -22.46578 | 11203 ft | 296 kts | 192° |
| 2026-04-07 19:55 | 16.72360 | -22.46959 | 10895 ft | 295 kts | 191° |
| 2026-04-07 19:55 | 16.70342 | -22.47340 | 10586 ft | 295 kts | 191° |
| 2026-04-07 19:56 | 16.68327 | -22.47720 | 10275 ft | 294 kts | 191° |
| 2026-04-07 19:56 | 16.66331 | -22.48096 | 10054 ft | 289 kts | 190° |
| 2026-04-07 19:56 | 16.64353 | -22.48470 | 9744 ft | 288 kts | 190° |
| 2026-04-07 19:56 | 16.62388 | -22.48840 | 9416 ft | 287 kts | 190° |
| 2026-04-07 19:57 | 16.60455 | -22.49205 | 9105 ft | 285 kts | 190° |
| 2026-04-07 19:57 | 16.58509 | -22.49572 | 8797 ft | 284 kts | 190° |
| 2026-04-07 19:57 | 16.56570 | -22.49938 | 8495 ft | 283 kts | 190° |
| 2026-04-07 19:57 | 16.54637 | -22.50302 | 8190 ft | 282 kts | 190° |
| 2026-04-07 19:58 | 16.52713 | -22.50665 | 7894 ft | 281 kts | 190° |
| 2026-04-07 19:58 | 16.50786 | -22.51028 | 7595 ft | 281 kts | 190° |
| 2026-04-07 19:58 | 16.48862 | -22.51391 | 7291 ft | 281 kts | 190° |
| 2026-04-07 19:58 | 16.46943 | -22.51753 | 6995 ft | 280 kts | 190° |
| 2026-04-07 19:59 | 16.45031 | -22.52113 | 6693 ft | 279 kts | 189° |
| 2026-04-07 19:59 | 16.43144 | -22.52468 | 6386 ft | 279 kts | 189° |
| 2026-04-07 19:59 | 16.41242 | -22.52827 | 6064 ft | 278 kts | 189° |
| 2026-04-07 19:59 | 16.39340 | -22.53184 | 5761 ft | 277 kts | 189° |
| 2026-04-07 20:00 | 16.37436 | -22.53544 | 5430 ft | 278 kts | 188° |
| 2026-04-07 20:00 | 16.35533 | -22.53901 | 5123 ft | 278 kts | 188° |
| 2026-04-07 20:00 | 16.31724 | -22.54618 | 4491 ft | 279 kts | 188° |
| 2026-04-07 20:01 | 16.29831 | -22.54975 | 4178 ft | 280 kts | 188° |
| 2026-04-07 20:01 | 16.27970 | -22.55506 | 3954 ft | 277 kts | 206° |
| 2026-04-07 20:01 | 16.26402 | -22.56640 | 3884 ft | 276 kts | 216° |
| 2026-04-07 20:01 | 16.24861 | -22.57844 | 3884 ft | 278 kts | 215° |
| 2026-04-07 20:02 | 16.23364 | -22.59015 | 3873 ft | 281 kts | 216° |
| 2026-04-07 20:02 | 16.21806 | -22.60241 | 3837 ft | 281 kts | 216° |
| 2026-04-07 20:02 | 16.20257 | -22.61462 | 3804 ft | 277 kts | 216° |
| 2026-04-07 20:02 | 16.18726 | -22.62672 | 3726 ft | 278 kts | 215° |
| 2026-04-07 20:03 | 16.17211 | -22.63867 | 3702 ft | 279 kts | 216° |
| 2026-04-07 20:03 | 16.15648 | -22.65100 | 3648 ft | 282 kts | 216° |
| 2026-04-07 20:03 | 16.14088 | -22.66332 | 3607 ft | 282 kts | 216° |
| 2026-04-07 20:03 | 16.12537 | -22.67557 | 3555 ft | 278 kts | 216° |
| 2026-04-07 20:04 | 16.11028 | -22.68747 | 3514 ft | 267 kts | 216° |
| 2026-04-07 20:04 | 16.09575 | -22.69894 | 3438 ft | 257 kts | 215° |
| 2026-04-07 20:04 | 16.08180 | -22.70992 | 3395 ft | 249 kts | 215° |
| 2026-04-07 20:04 | 16.07092 | -22.71851 | 3382 ft | 247 kts | 215° |
| 2026-04-07 20:05 | 16.05890 | -22.72799 | 3352 ft | 246 kts | 216° |
| 2026-04-07 20:05 | 16.04564 | -22.73844 | 3387 ft | 231 kts | 216° |
| 2026-04-07 20:05 | 16.03318 | -22.74827 | 3326 ft | 219 kts | 215° |
| 2026-04-07 20:05 | 16.02117 | -22.75772 | 3243 ft | 216 kts | 214° |
| 2026-04-07 20:06 | 16.00920 | -22.76716 | 3227 ft | 215 kts | 215° |
| 2026-04-07 20:06 | 15.99734 | -22.77650 | 3165 ft | 213 kts | 216° |
| 2026-04-07 20:06 | 15.98551 | -22.78581 | 3136 ft | 214 kts | 216° |
| 2026-04-07 20:06 | 15.97371 | -22.79509 | 3122 ft | 211 kts | 215° |
| 2026-04-07 20:07 | 15.96209 | -22.80424 | 3091 ft | 210 kts | 214° |
| 2026-04-07 20:07 | 15.95048 | -22.81337 | 3050 ft | 212 kts | 215° |
| 2026-04-07 20:07 | 15.93874 | -22.82261 | 3041 ft | 211 kts | 216° |
| 2026-04-07 20:07 | 15.92695 | -22.83190 | 2992 ft | 214 kts | 215° |
| 2026-04-07 20:08 | 15.91507 | -22.84126 | 2986 ft | 214 kts | 216° |
| 2026-04-07 20:08 | 15.90564 | -22.85276 | 2895 ft | 209 kts | 250° |
| 2026-04-07 20:08 | 15.90412 | -22.86723 | 2778 ft | 200 kts | 286° |
| 2026-04-07 20:08 | 15.90739 | -22.88125 | 2769 ft | 200 kts | 291° |
| 2026-04-07 20:09 | 15.91116 | -22.89526 | 2792 ft | 202 kts | 292° |
| 2026-04-07 20:09 | 15.91503 | -22.90931 | 2822 ft | 202 kts | 291° |
| 2026-04-07 20:09 | 15.91890 | -22.92314 | 2807 ft | 203 kts | 291° |
| 2026-04-07 20:09 | 15.92423 | -22.93641 | 2726 ft | 192 kts | 315° |
| 2026-04-07 20:10 | 15.93375 | -22.94363 | 2665 ft | 170 kts | 349° |
| 2026-04-07 20:10 | 15.94502 | -22.94463 | 2613 ft | 160 kts | 14° |
| 2026-04-07 20:10 | 15.95585 | -22.94237 | 2610 ft | 158 kts | 17° |
| 2026-04-07 20:10 | 15.96649 | -22.93980 | 2590 ft | 156 kts | 18° |
| 2026-04-07 20:11 | 15.97702 | -22.93705 | 2539 ft | 156 kts | 19° |
| 2026-04-07 20:11 | 15.98742 | -22.93419 | 2535 ft | 157 kts | 19° |
| 2026-04-07 20:11 | 15.99770 | -22.93133 | 2559 ft | 147 kts | 18° |
| 2026-04-07 20:11 | 16.00704 | -22.92886 | 2543 ft | 133 kts | 21° |
| 2026-04-07 20:12 | 16.01572 | -22.92630 | 2486 ft | 129 kts | 21° |
| 2026-04-07 20:12 | 16.02422 | -22.92381 | 2281 ft | 125 kts | 20° |
| 2026-04-07 20:12 | 16.03256 | -22.92119 | 2110 ft | 126 kts | 18° |
| 2026-04-07 20:12 | 16.04098 | -22.91865 | 2003 ft | 126 kts | 21° |
| 2026-04-07 20:13 | 16.04943 | -22.91584 | 1958 ft | 128 kts | 19° |
| 2026-04-07 20:13 | 16.05793 | -22.91321 | 1827 ft | 127 kts | 19° |
| 2026-04-07 20:13 | 16.06636 | -22.91066 | 1579 ft | 126 kts | 18° |
| 2026-04-07 20:13 | 16.07453 | -22.90816 | 1235 ft | 124 kts | 20° |
| 2026-04-07 20:14 | 16.08242 | -22.90546 | 1066 ft | 120 kts | 19° |
| 2026-04-07 20:14 | 16.09054 | -22.90313 | 926 ft | 125 kts | 16° |
| 2026-04-07 20:14 | 16.09900 | -22.90069 | 710 ft | 127 kts | 19° |
| 2026-04-07 20:14 | 16.10753 | -22.89779 | 522 ft | 130 kts | 18° |
| 2026-04-07 20:15 | 16.11604 | -22.89522 | 359 ft | 126 kts | 17° |
| 2026-04-07 20:15 | 16.12428 | -22.89267 | 180 ft | 122 kts | 20° |
| 2026-04-07 20:15 | 16.13226 | -22.89018 | 63 ft | 112 kts | 19° |
| 2026-04-07 20:15 | 16.13834 | -22.88830 | 59 ft | 73 kts | 16° |
| 2026-04-07 20:16 | 16.14179 | -22.88724 | 67 ft | 37 kts | 17° |
| 2026-04-07 20:16 | 16.14434 | -22.88643 | 60 ft | 40 kts | 15° |
| 2026-04-07 20:16 | 16.14546 | -22.88633 | 60 ft | 12 kts | 329° |
| 2026-04-07 20:16 | 16.14589 | -22.88611 | 64 ft | 8 kts | 110° |